<?xml version="1.0" encoding="UTF-8" standalone="no" ?>
<gpx xmlns="http://www.topografix.com/GPX/1/1" xmlns:xsi="http://www.w3.org/2001/XMLSchema-instance" xsi:schemaLocation="http://www.topografix.com/GPX/1/1 http://www.topografix.com/GPX/1/1/gpx.xsd" version="1.1" creator="VisuGPX - https://www.visugpx.com">
  <metadata>
    <name>Autour du Bessat le 30-9-2010</name>
    <desc><![CDATA[Autour du Bessat le 30-9-2010]]></desc>
  </metadata>
  <wpt lat="45.36294" lon="4.51803">
    <ele>1156</ele>
  </wpt>
  <wpt lat="45.36281" lon="4.5181">
    <ele>1169</ele>
  </wpt>
  <trk>
    <name><![CDATA[Autour du Bessat le 30-9-2010_1]]></name>
    <trkseg>
      <trkpt lat="45.36294" lon="4.51803">
        <ele>1156</ele>
        <time>2010-09-30T06:45:16Z</time>
      </trkpt>
      <trkpt lat="45.36284" lon="4.5181">
        <ele>1167</ele>
        <time>2010-09-30T06:45:32Z</time>
      </trkpt>
      <trkpt lat="45.36276" lon="4.51818">
        <ele>1167</ele>
        <time>2010-09-30T06:57:03Z</time>
      </trkpt>
      <trkpt lat="45.36267" lon="4.5182">
        <ele>1167</ele>
        <time>2010-09-30T06:57:14Z</time>
      </trkpt>
      <trkpt lat="45.36257" lon="4.51824">
        <ele>1167</ele>
        <time>2010-09-30T06:57:27Z</time>
      </trkpt>
      <trkpt lat="45.36249" lon="4.5183">
        <ele>1167</ele>
        <time>2010-09-30T06:57:36Z</time>
      </trkpt>
      <trkpt lat="45.36241" lon="4.51838">
        <ele>1167</ele>
        <time>2010-09-30T06:57:54Z</time>
      </trkpt>
      <trkpt lat="45.36241" lon="4.51853">
        <ele>1174</ele>
        <time>2010-09-30T06:59:11Z</time>
      </trkpt>
      <trkpt lat="45.36236" lon="4.51864">
        <ele>1174</ele>
        <time>2010-09-30T06:59:22Z</time>
      </trkpt>
      <trkpt lat="45.36232" lon="4.51876">
        <ele>1174</ele>
        <time>2010-09-30T06:59:33Z</time>
      </trkpt>
      <trkpt lat="45.36227" lon="4.51889">
        <ele>1174</ele>
        <time>2010-09-30T06:59:45Z</time>
      </trkpt>
      <trkpt lat="45.36224" lon="4.51901">
        <ele>1174</ele>
        <time>2010-09-30T06:59:54Z</time>
      </trkpt>
      <trkpt lat="45.3622" lon="4.51914">
        <ele>1179</ele>
        <time>2010-09-30T07:00:04Z</time>
      </trkpt>
      <trkpt lat="45.36214" lon="4.51925">
        <ele>1179</ele>
        <time>2010-09-30T07:00:14Z</time>
      </trkpt>
      <trkpt lat="45.36208" lon="4.51935">
        <ele>1179</ele>
        <time>2010-09-30T07:00:23Z</time>
      </trkpt>
      <trkpt lat="45.362" lon="4.51944">
        <ele>1186</ele>
        <time>2010-09-30T07:00:33Z</time>
      </trkpt>
      <trkpt lat="45.36194" lon="4.51955">
        <ele>1186</ele>
        <time>2010-09-30T07:00:44Z</time>
      </trkpt>
      <trkpt lat="45.36186" lon="4.51962">
        <ele>1186</ele>
        <time>2010-09-30T07:00:56Z</time>
      </trkpt>
      <trkpt lat="45.3618" lon="4.51974">
        <ele>1186</ele>
        <time>2010-09-30T07:01:07Z</time>
      </trkpt>
      <trkpt lat="45.36177" lon="4.51988">
        <ele>1192</ele>
        <time>2010-09-30T07:01:22Z</time>
      </trkpt>
      <trkpt lat="45.36171" lon="4.51999">
        <ele>1201</ele>
        <time>2010-09-30T07:01:36Z</time>
      </trkpt>
      <trkpt lat="45.36166" lon="4.52012">
        <ele>1207</ele>
        <time>2010-09-30T07:01:50Z</time>
      </trkpt>
      <trkpt lat="45.36161" lon="4.52023">
        <ele>1200</ele>
        <time>2010-09-30T07:01:58Z</time>
      </trkpt>
      <trkpt lat="45.36156" lon="4.52035">
        <ele>1200</ele>
        <time>2010-09-30T07:02:09Z</time>
      </trkpt>
      <trkpt lat="45.36152" lon="4.52047">
        <ele>1200</ele>
        <time>2010-09-30T07:02:22Z</time>
      </trkpt>
      <trkpt lat="45.36146" lon="4.52057">
        <ele>1200</ele>
        <time>2010-09-30T07:02:31Z</time>
      </trkpt>
      <trkpt lat="45.36141" lon="4.52069">
        <ele>1200</ele>
        <time>2010-09-30T07:02:40Z</time>
      </trkpt>
      <trkpt lat="45.36136" lon="4.52082">
        <ele>1200</ele>
        <time>2010-09-30T07:02:51Z</time>
      </trkpt>
      <trkpt lat="45.36134" lon="4.52095">
        <ele>1200</ele>
        <time>2010-09-30T07:03:00Z</time>
      </trkpt>
      <trkpt lat="45.36132" lon="4.52109">
        <ele>1200</ele>
        <time>2010-09-30T07:03:11Z</time>
      </trkpt>
      <trkpt lat="45.36135" lon="4.52122">
        <ele>1206</ele>
        <time>2010-09-30T07:03:24Z</time>
      </trkpt>
      <trkpt lat="45.36136" lon="4.52136">
        <ele>1211</ele>
        <time>2010-09-30T07:03:38Z</time>
      </trkpt>
      <trkpt lat="45.36139" lon="4.52148">
        <ele>1218</ele>
        <time>2010-09-30T07:03:52Z</time>
      </trkpt>
      <trkpt lat="45.36146" lon="4.52162">
        <ele>1218</ele>
        <time>2010-09-30T07:04:07Z</time>
      </trkpt>
      <trkpt lat="45.36151" lon="4.52173">
        <ele>1210</ele>
        <time>2010-09-30T07:04:14Z</time>
      </trkpt>
      <trkpt lat="45.36159" lon="4.52182">
        <ele>1210</ele>
        <time>2010-09-30T07:04:24Z</time>
      </trkpt>
      <trkpt lat="45.36168" lon="4.52188">
        <ele>1225</ele>
        <time>2010-09-30T07:04:39Z</time>
      </trkpt>
      <trkpt lat="45.36175" lon="4.52198">
        <ele>1220</ele>
        <time>2010-09-30T07:04:46Z</time>
      </trkpt>
      <trkpt lat="45.36181" lon="4.52208">
        <ele>1220</ele>
        <time>2010-09-30T07:04:58Z</time>
      </trkpt>
      <trkpt lat="45.36184" lon="4.52221">
        <ele>1208</ele>
        <time>2010-09-30T07:05:08Z</time>
      </trkpt>
      <trkpt lat="45.36191" lon="4.52231">
        <ele>1208</ele>
        <time>2010-09-30T07:05:17Z</time>
      </trkpt>
      <trkpt lat="45.36196" lon="4.52243">
        <ele>1208</ele>
        <time>2010-09-30T07:05:29Z</time>
      </trkpt>
      <trkpt lat="45.36204" lon="4.52251">
        <ele>1218</ele>
        <time>2010-09-30T07:05:39Z</time>
      </trkpt>
      <trkpt lat="45.36208" lon="4.52264">
        <ele>1213</ele>
        <time>2010-09-30T07:05:49Z</time>
      </trkpt>
      <trkpt lat="45.36214" lon="4.52275">
        <ele>1213</ele>
        <time>2010-09-30T07:05:59Z</time>
      </trkpt>
      <trkpt lat="45.36222" lon="4.52284">
        <ele>1213</ele>
        <time>2010-09-30T07:06:07Z</time>
      </trkpt>
      <trkpt lat="45.36226" lon="4.52296">
        <ele>1231</ele>
        <time>2010-09-30T07:06:28Z</time>
      </trkpt>
      <trkpt lat="45.36228" lon="4.52309">
        <ele>1231</ele>
        <time>2010-09-30T07:06:36Z</time>
      </trkpt>
      <trkpt lat="45.36231" lon="4.52322">
        <ele>1223</ele>
        <time>2010-09-30T07:06:45Z</time>
      </trkpt>
      <trkpt lat="45.36234" lon="4.52334">
        <ele>1223</ele>
        <time>2010-09-30T07:06:55Z</time>
      </trkpt>
      <trkpt lat="45.36239" lon="4.52349">
        <ele>1223</ele>
        <time>2010-09-30T07:07:08Z</time>
      </trkpt>
      <trkpt lat="45.36241" lon="4.52361">
        <ele>1231</ele>
        <time>2010-09-30T07:07:18Z</time>
      </trkpt>
      <trkpt lat="45.36243" lon="4.52375">
        <ele>1231</ele>
        <time>2010-09-30T07:07:29Z</time>
      </trkpt>
      <trkpt lat="45.36248" lon="4.52389">
        <ele>1223</ele>
        <time>2010-09-30T07:07:37Z</time>
      </trkpt>
      <trkpt lat="45.36254" lon="4.52399">
        <ele>1223</ele>
        <time>2010-09-30T07:07:46Z</time>
      </trkpt>
      <trkpt lat="45.36262" lon="4.5241">
        <ele>1230</ele>
        <time>2010-09-30T07:07:57Z</time>
      </trkpt>
      <trkpt lat="45.36269" lon="4.52419">
        <ele>1239</ele>
        <time>2010-09-30T07:08:08Z</time>
      </trkpt>
      <trkpt lat="45.36273" lon="4.52431">
        <ele>1239</ele>
        <time>2010-09-30T07:08:16Z</time>
      </trkpt>
      <trkpt lat="45.36279" lon="4.52442">
        <ele>1234</ele>
        <time>2010-09-30T07:08:26Z</time>
      </trkpt>
      <trkpt lat="45.36285" lon="4.52452">
        <ele>1234</ele>
        <time>2010-09-30T07:08:35Z</time>
      </trkpt>
      <trkpt lat="45.36292" lon="4.52463">
        <ele>1234</ele>
        <time>2010-09-30T07:08:45Z</time>
      </trkpt>
      <trkpt lat="45.36299" lon="4.52472">
        <ele>1234</ele>
        <time>2010-09-30T07:08:53Z</time>
      </trkpt>
      <trkpt lat="45.36308" lon="4.5248">
        <ele>1234</ele>
        <time>2010-09-30T07:09:03Z</time>
      </trkpt>
      <trkpt lat="45.36315" lon="4.52488">
        <ele>1234</ele>
        <time>2010-09-30T07:09:09Z</time>
      </trkpt>
      <trkpt lat="45.36321" lon="4.525">
        <ele>1234</ele>
        <time>2010-09-30T07:09:18Z</time>
      </trkpt>
      <trkpt lat="45.36324" lon="4.52513">
        <ele>1234</ele>
        <time>2010-09-30T07:09:26Z</time>
      </trkpt>
      <trkpt lat="45.36329" lon="4.52525">
        <ele>1229</ele>
        <time>2010-09-30T07:09:32Z</time>
      </trkpt>
      <trkpt lat="45.36333" lon="4.52536">
        <ele>1229</ele>
        <time>2010-09-30T07:09:38Z</time>
      </trkpt>
      <trkpt lat="45.36339" lon="4.52549">
        <ele>1229</ele>
        <time>2010-09-30T07:09:47Z</time>
      </trkpt>
      <trkpt lat="45.36348" lon="4.52555">
        <ele>1229</ele>
        <time>2010-09-30T07:09:56Z</time>
      </trkpt>
      <trkpt lat="45.36354" lon="4.52565">
        <ele>1235</ele>
        <time>2010-09-30T07:10:07Z</time>
      </trkpt>
      <trkpt lat="45.36357" lon="4.52578">
        <ele>1235</ele>
        <time>2010-09-30T07:10:28Z</time>
      </trkpt>
      <trkpt lat="45.36357" lon="4.52593">
        <ele>1235</ele>
        <time>2010-09-30T07:10:41Z</time>
      </trkpt>
      <trkpt lat="45.36346" lon="4.52596">
        <ele>1241</ele>
        <time>2010-09-30T07:11:05Z</time>
      </trkpt>
      <trkpt lat="45.36336" lon="4.52595">
        <ele>1241</ele>
        <time>2010-09-30T07:11:11Z</time>
      </trkpt>
      <trkpt lat="45.36326" lon="4.52598">
        <ele>1241</ele>
        <time>2010-09-30T07:12:08Z</time>
      </trkpt>
      <trkpt lat="45.36316" lon="4.52601">
        <ele>1249</ele>
        <time>2010-09-30T07:12:11Z</time>
      </trkpt>
      <trkpt lat="45.3631" lon="4.5259">
        <ele>1256</ele>
        <time>2010-09-30T07:12:22Z</time>
      </trkpt>
      <trkpt lat="45.36302" lon="4.52585">
        <ele>1256</ele>
        <time>2010-09-30T07:12:38Z</time>
      </trkpt>
      <trkpt lat="45.36292" lon="4.52585">
        <ele>1250</ele>
        <time>2010-09-30T07:12:46Z</time>
      </trkpt>
      <trkpt lat="45.36281" lon="4.52582">
        <ele>1250</ele>
        <time>2010-09-30T07:12:54Z</time>
      </trkpt>
      <trkpt lat="45.36271" lon="4.52576">
        <ele>1257</ele>
        <time>2010-09-30T07:13:05Z</time>
      </trkpt>
      <trkpt lat="45.36262" lon="4.52575">
        <ele>1257</ele>
        <time>2010-09-30T07:13:14Z</time>
      </trkpt>
      <trkpt lat="45.36251" lon="4.52567">
        <ele>1257</ele>
        <time>2010-09-30T07:13:27Z</time>
      </trkpt>
      <trkpt lat="45.36242" lon="4.52564">
        <ele>1257</ele>
        <time>2010-09-30T07:13:40Z</time>
      </trkpt>
      <trkpt lat="45.36233" lon="4.52569">
        <ele>1257</ele>
        <time>2010-09-30T07:13:46Z</time>
      </trkpt>
      <trkpt lat="45.36223" lon="4.52566">
        <ele>1257</ele>
        <time>2010-09-30T07:13:54Z</time>
      </trkpt>
      <trkpt lat="45.36214" lon="4.52561">
        <ele>1251</ele>
        <time>2010-09-30T07:14:10Z</time>
      </trkpt>
      <trkpt lat="45.36205" lon="4.52561">
        <ele>1251</ele>
        <time>2010-09-30T07:14:16Z</time>
      </trkpt>
      <trkpt lat="45.36196" lon="4.52557">
        <ele>1259</ele>
        <time>2010-09-30T07:14:22Z</time>
      </trkpt>
      <trkpt lat="45.36186" lon="4.52555">
        <ele>1265</ele>
        <time>2010-09-30T07:14:31Z</time>
      </trkpt>
      <trkpt lat="45.36177" lon="4.52545">
        <ele>1265</ele>
        <time>2010-09-30T07:14:42Z</time>
      </trkpt>
      <trkpt lat="45.36169" lon="4.52539">
        <ele>1274</ele>
        <time>2010-09-30T07:14:56Z</time>
      </trkpt>
      <trkpt lat="45.3616" lon="4.52543">
        <ele>1259</ele>
        <time>2010-09-30T07:15:06Z</time>
      </trkpt>
      <trkpt lat="45.3615" lon="4.52545">
        <ele>1259</ele>
        <time>2010-09-30T07:15:13Z</time>
      </trkpt>
      <trkpt lat="45.3614" lon="4.5254">
        <ele>1259</ele>
        <time>2010-09-30T07:15:22Z</time>
      </trkpt>
      <trkpt lat="45.36131" lon="4.5254">
        <ele>1259</ele>
        <time>2010-09-30T07:15:39Z</time>
      </trkpt>
      <trkpt lat="45.36122" lon="4.52543">
        <ele>1259</ele>
        <time>2010-09-30T07:15:46Z</time>
      </trkpt>
      <trkpt lat="45.36113" lon="4.52538">
        <ele>1259</ele>
        <time>2010-09-30T07:15:56Z</time>
      </trkpt>
      <trkpt lat="45.36103" lon="4.52539">
        <ele>1259</ele>
        <time>2010-09-30T07:16:06Z</time>
      </trkpt>
      <trkpt lat="45.36096" lon="4.52531">
        <ele>1259</ele>
        <time>2010-09-30T07:16:21Z</time>
      </trkpt>
      <trkpt lat="45.36086" lon="4.52533">
        <ele>1253</ele>
        <time>2010-09-30T07:16:35Z</time>
      </trkpt>
      <trkpt lat="45.36079" lon="4.52541">
        <ele>1253</ele>
        <time>2010-09-30T07:16:44Z</time>
      </trkpt>
      <trkpt lat="45.36068" lon="4.52548">
        <ele>1261</ele>
        <time>2010-09-30T07:16:53Z</time>
      </trkpt>
      <trkpt lat="45.36058" lon="4.52552">
        <ele>1272</ele>
        <time>2010-09-30T07:17:05Z</time>
      </trkpt>
      <trkpt lat="45.36049" lon="4.52553">
        <ele>1272</ele>
        <time>2010-09-30T07:17:18Z</time>
      </trkpt>
      <trkpt lat="45.36042" lon="4.52567">
        <ele>1272</ele>
        <time>2010-09-30T07:17:35Z</time>
      </trkpt>
      <trkpt lat="45.36034" lon="4.52576">
        <ele>1272</ele>
        <time>2010-09-30T07:17:45Z</time>
      </trkpt>
      <trkpt lat="45.36027" lon="4.52587">
        <ele>1272</ele>
        <time>2010-09-30T07:17:57Z</time>
      </trkpt>
      <trkpt lat="45.36022" lon="4.52597">
        <ele>1272</ele>
        <time>2010-09-30T07:18:10Z</time>
      </trkpt>
      <trkpt lat="45.36017" lon="4.52609">
        <ele>1264</ele>
        <time>2010-09-30T07:18:26Z</time>
      </trkpt>
      <trkpt lat="45.36008" lon="4.52613">
        <ele>1271</ele>
        <time>2010-09-30T07:18:39Z</time>
      </trkpt>
      <trkpt lat="45.35999" lon="4.52617">
        <ele>1271</ele>
        <time>2010-09-30T07:18:42Z</time>
      </trkpt>
      <trkpt lat="45.35992" lon="4.52625">
        <ele>1271</ele>
        <time>2010-09-30T07:18:59Z</time>
      </trkpt>
      <trkpt lat="45.35982" lon="4.52629">
        <ele>1271</ele>
        <time>2010-09-30T07:19:06Z</time>
      </trkpt>
      <trkpt lat="45.35971" lon="4.52631">
        <ele>1277</ele>
        <time>2010-09-30T07:19:19Z</time>
      </trkpt>
      <trkpt lat="45.35961" lon="4.52636">
        <ele>1277</ele>
        <time>2010-09-30T07:19:25Z</time>
      </trkpt>
      <trkpt lat="45.35952" lon="4.5264">
        <ele>1277</ele>
        <time>2010-09-30T07:19:42Z</time>
      </trkpt>
      <trkpt lat="45.35943" lon="4.52636">
        <ele>1277</ele>
        <time>2010-09-30T07:19:57Z</time>
      </trkpt>
      <trkpt lat="45.35932" lon="4.52645">
        <ele>1277</ele>
        <time>2010-09-30T07:20:11Z</time>
      </trkpt>
      <trkpt lat="45.35922" lon="4.52642">
        <ele>1277</ele>
        <time>2010-09-30T07:20:19Z</time>
      </trkpt>
      <trkpt lat="45.35911" lon="4.52641">
        <ele>1277</ele>
        <time>2010-09-30T07:20:30Z</time>
      </trkpt>
      <trkpt lat="45.35901" lon="4.52646">
        <ele>1286</ele>
        <time>2010-09-30T07:20:40Z</time>
      </trkpt>
      <trkpt lat="45.35892" lon="4.52652">
        <ele>1286</ele>
        <time>2010-09-30T07:20:46Z</time>
      </trkpt>
      <trkpt lat="45.35883" lon="4.52657">
        <ele>1286</ele>
        <time>2010-09-30T07:20:58Z</time>
      </trkpt>
      <trkpt lat="45.35873" lon="4.52659">
        <ele>1286</ele>
        <time>2010-09-30T07:21:10Z</time>
      </trkpt>
      <trkpt lat="45.35864" lon="4.52667">
        <ele>1286</ele>
        <time>2010-09-30T07:21:17Z</time>
      </trkpt>
      <trkpt lat="45.35854" lon="4.52671">
        <ele>1292</ele>
        <time>2010-09-30T07:21:27Z</time>
      </trkpt>
      <trkpt lat="45.35849" lon="4.52682">
        <ele>1292</ele>
        <time>2010-09-30T07:21:54Z</time>
      </trkpt>
      <trkpt lat="45.3584" lon="4.5269">
        <ele>1285</ele>
        <time>2010-09-30T07:22:01Z</time>
      </trkpt>
      <trkpt lat="45.3583" lon="4.52696">
        <ele>1285</ele>
        <time>2010-09-30T07:22:07Z</time>
      </trkpt>
      <trkpt lat="45.3582" lon="4.527">
        <ele>1285</ele>
        <time>2010-09-30T07:22:21Z</time>
      </trkpt>
      <trkpt lat="45.35812" lon="4.52706">
        <ele>1279</ele>
        <time>2010-09-30T07:22:32Z</time>
      </trkpt>
      <trkpt lat="45.35801" lon="4.52706">
        <ele>1279</ele>
        <time>2010-09-30T07:22:47Z</time>
      </trkpt>
      <trkpt lat="45.3579" lon="4.5271">
        <ele>1287</ele>
        <time>2010-09-30T07:22:58Z</time>
      </trkpt>
      <trkpt lat="45.3578" lon="4.52713">
        <ele>1294</ele>
        <time>2010-09-30T07:23:04Z</time>
      </trkpt>
      <trkpt lat="45.35774" lon="4.52724">
        <ele>1288</ele>
        <time>2010-09-30T07:23:21Z</time>
      </trkpt>
      <trkpt lat="45.35769" lon="4.52736">
        <ele>1288</ele>
        <time>2010-09-30T07:23:28Z</time>
      </trkpt>
      <trkpt lat="45.35758" lon="4.52737">
        <ele>1288</ele>
        <time>2010-09-30T07:23:39Z</time>
      </trkpt>
      <trkpt lat="45.35749" lon="4.52742">
        <ele>1298</ele>
        <time>2010-09-30T07:23:49Z</time>
      </trkpt>
      <trkpt lat="45.35739" lon="4.52748">
        <ele>1298</ele>
        <time>2010-09-30T07:23:57Z</time>
      </trkpt>
      <trkpt lat="45.35728" lon="4.52749">
        <ele>1298</ele>
        <time>2010-09-30T07:24:05Z</time>
      </trkpt>
      <trkpt lat="45.3572" lon="4.52756">
        <ele>1305</ele>
        <time>2010-09-30T07:24:18Z</time>
      </trkpt>
      <trkpt lat="45.35711" lon="4.52763">
        <ele>1305</ele>
        <time>2010-09-30T07:24:23Z</time>
      </trkpt>
      <trkpt lat="45.35704" lon="4.52773">
        <ele>1296</ele>
        <time>2010-09-30T07:24:30Z</time>
      </trkpt>
      <trkpt lat="45.35694" lon="4.52773">
        <ele>1286</ele>
        <time>2010-09-30T07:24:45Z</time>
      </trkpt>
      <trkpt lat="45.35683" lon="4.52773">
        <ele>1286</ele>
        <time>2010-09-30T07:24:52Z</time>
      </trkpt>
      <trkpt lat="45.35675" lon="4.5278">
        <ele>1286</ele>
        <time>2010-09-30T07:25:00Z</time>
      </trkpt>
      <trkpt lat="45.35664" lon="4.52781">
        <ele>1294</ele>
        <time>2010-09-30T07:25:16Z</time>
      </trkpt>
      <trkpt lat="45.35654" lon="4.52785">
        <ele>1294</ele>
        <time>2010-09-30T07:25:23Z</time>
      </trkpt>
      <trkpt lat="45.35644" lon="4.52785">
        <ele>1285</ele>
        <time>2010-09-30T07:25:39Z</time>
      </trkpt>
      <trkpt lat="45.35635" lon="4.52789">
        <ele>1285</ele>
        <time>2010-09-30T07:25:43Z</time>
      </trkpt>
      <trkpt lat="45.35623" lon="4.52789">
        <ele>1285</ele>
        <time>2010-09-30T07:25:50Z</time>
      </trkpt>
      <trkpt lat="45.35613" lon="4.52781">
        <ele>1290</ele>
        <time>2010-09-30T07:26:00Z</time>
      </trkpt>
      <trkpt lat="45.35604" lon="4.52784">
        <ele>1290</ele>
        <time>2010-09-30T07:26:07Z</time>
      </trkpt>
      <trkpt lat="45.35595" lon="4.52788">
        <ele>1290</ele>
        <time>2010-09-30T07:26:16Z</time>
      </trkpt>
      <trkpt lat="45.35585" lon="4.52782">
        <ele>1290</ele>
        <time>2010-09-30T07:26:33Z</time>
      </trkpt>
      <trkpt lat="45.35574" lon="4.52781">
        <ele>1290</ele>
        <time>2010-09-30T07:26:43Z</time>
      </trkpt>
      <trkpt lat="45.35566" lon="4.52775">
        <ele>1290</ele>
        <time>2010-09-30T07:26:59Z</time>
      </trkpt>
      <trkpt lat="45.35554" lon="4.52769">
        <ele>1298</ele>
        <time>2010-09-30T07:27:07Z</time>
      </trkpt>
      <trkpt lat="45.35544" lon="4.52764">
        <ele>1298</ele>
        <time>2010-09-30T07:27:13Z</time>
      </trkpt>
      <trkpt lat="45.35535" lon="4.52767">
        <ele>1298</ele>
        <time>2010-09-30T07:27:21Z</time>
      </trkpt>
      <trkpt lat="45.35523" lon="4.52765">
        <ele>1304</ele>
        <time>2010-09-30T07:27:44Z</time>
      </trkpt>
      <trkpt lat="45.35514" lon="4.52772">
        <ele>1304</ele>
        <time>2010-09-30T07:27:51Z</time>
      </trkpt>
      <trkpt lat="45.35505" lon="4.52767">
        <ele>1318</ele>
        <time>2010-09-30T07:28:16Z</time>
      </trkpt>
      <trkpt lat="45.35509" lon="4.52781">
        <ele>1281</ele>
        <time>2010-09-30T07:29:03Z</time>
      </trkpt>
      <trkpt lat="45.35509" lon="4.52766">
        <ele>1290</ele>
        <time>2010-09-30T07:29:33Z</time>
      </trkpt>
      <trkpt lat="45.35509" lon="4.52781">
        <ele>1304</ele>
        <time>2010-09-30T07:32:54Z</time>
      </trkpt>
      <trkpt lat="45.35501" lon="4.52793">
        <ele>1298</ele>
        <time>2010-09-30T07:33:09Z</time>
      </trkpt>
      <trkpt lat="45.35493" lon="4.52803">
        <ele>1298</ele>
        <time>2010-09-30T07:33:24Z</time>
      </trkpt>
      <trkpt lat="45.35493" lon="4.52817">
        <ele>1298</ele>
        <time>2010-09-30T07:33:38Z</time>
      </trkpt>
      <trkpt lat="45.35487" lon="4.52828">
        <ele>1298</ele>
        <time>2010-09-30T07:33:47Z</time>
      </trkpt>
      <trkpt lat="45.35476" lon="4.52833">
        <ele>1298</ele>
        <time>2010-09-30T07:33:56Z</time>
      </trkpt>
      <trkpt lat="45.35466" lon="4.52836">
        <ele>1298</ele>
        <time>2010-09-30T07:34:03Z</time>
      </trkpt>
      <trkpt lat="45.35456" lon="4.52843">
        <ele>1298</ele>
        <time>2010-09-30T07:34:12Z</time>
      </trkpt>
      <trkpt lat="45.35448" lon="4.52853">
        <ele>1298</ele>
        <time>2010-09-30T07:34:23Z</time>
      </trkpt>
      <trkpt lat="45.35441" lon="4.52862">
        <ele>1298</ele>
        <time>2010-09-30T07:34:38Z</time>
      </trkpt>
      <trkpt lat="45.35433" lon="4.52871">
        <ele>1298</ele>
        <time>2010-09-30T07:34:49Z</time>
      </trkpt>
      <trkpt lat="45.35427" lon="4.52881">
        <ele>1298</ele>
        <time>2010-09-30T07:34:55Z</time>
      </trkpt>
      <trkpt lat="45.35421" lon="4.52891">
        <ele>1298</ele>
        <time>2010-09-30T07:35:00Z</time>
      </trkpt>
      <trkpt lat="45.35415" lon="4.52903">
        <ele>1298</ele>
        <time>2010-09-30T07:35:13Z</time>
      </trkpt>
      <trkpt lat="45.35406" lon="4.52905">
        <ele>1298</ele>
        <time>2010-09-30T07:35:21Z</time>
      </trkpt>
      <trkpt lat="45.35396" lon="4.52912">
        <ele>1298</ele>
        <time>2010-09-30T07:35:28Z</time>
      </trkpt>
      <trkpt lat="45.35386" lon="4.52914">
        <ele>1290</ele>
        <time>2010-09-30T07:35:36Z</time>
      </trkpt>
      <trkpt lat="45.35376" lon="4.52919">
        <ele>1290</ele>
        <time>2010-09-30T07:35:45Z</time>
      </trkpt>
      <trkpt lat="45.35369" lon="4.52928">
        <ele>1282</ele>
        <time>2010-09-30T07:35:49Z</time>
      </trkpt>
      <trkpt lat="45.35362" lon="4.5294">
        <ele>1282</ele>
        <time>2010-09-30T07:36:03Z</time>
      </trkpt>
      <trkpt lat="45.35355" lon="4.52949">
        <ele>1299</ele>
        <time>2010-09-30T07:36:38Z</time>
      </trkpt>
      <trkpt lat="45.35347" lon="4.52961">
        <ele>1299</ele>
        <time>2010-09-30T07:36:44Z</time>
      </trkpt>
      <trkpt lat="45.35344" lon="4.52975">
        <ele>1299</ele>
        <time>2010-09-30T07:36:55Z</time>
      </trkpt>
      <trkpt lat="45.35336" lon="4.52983">
        <ele>1299</ele>
        <time>2010-09-30T07:37:00Z</time>
      </trkpt>
      <trkpt lat="45.35329" lon="4.52992">
        <ele>1299</ele>
        <time>2010-09-30T07:37:05Z</time>
      </trkpt>
      <trkpt lat="45.3532" lon="4.52999">
        <ele>1299</ele>
        <time>2010-09-30T07:37:09Z</time>
      </trkpt>
      <trkpt lat="45.35312" lon="4.53006">
        <ele>1299</ele>
        <time>2010-09-30T07:37:17Z</time>
      </trkpt>
      <trkpt lat="45.35303" lon="4.53014">
        <ele>1299</ele>
        <time>2010-09-30T07:37:25Z</time>
      </trkpt>
      <trkpt lat="45.35295" lon="4.5302">
        <ele>1299</ele>
        <time>2010-09-30T07:37:33Z</time>
      </trkpt>
      <trkpt lat="45.35286" lon="4.53025">
        <ele>1285</ele>
        <time>2010-09-30T07:37:44Z</time>
      </trkpt>
      <trkpt lat="45.35279" lon="4.53037">
        <ele>1285</ele>
        <time>2010-09-30T07:37:56Z</time>
      </trkpt>
      <trkpt lat="45.35274" lon="4.53049">
        <ele>1285</ele>
        <time>2010-09-30T07:38:01Z</time>
      </trkpt>
      <trkpt lat="45.35269" lon="4.5306">
        <ele>1285</ele>
        <time>2010-09-30T07:38:08Z</time>
      </trkpt>
      <trkpt lat="45.35258" lon="4.53059">
        <ele>1285</ele>
        <time>2010-09-30T07:38:12Z</time>
      </trkpt>
      <trkpt lat="45.35249" lon="4.53067">
        <ele>1274</ele>
        <time>2010-09-30T07:38:26Z</time>
      </trkpt>
      <trkpt lat="45.35243" lon="4.53077">
        <ele>1281</ele>
        <time>2010-09-30T07:38:31Z</time>
      </trkpt>
      <trkpt lat="45.35233" lon="4.53086">
        <ele>1281</ele>
        <time>2010-09-30T07:38:41Z</time>
      </trkpt>
      <trkpt lat="45.35226" lon="4.53095">
        <ele>1281</ele>
        <time>2010-09-30T07:38:55Z</time>
      </trkpt>
      <trkpt lat="45.35217" lon="4.53103">
        <ele>1281</ele>
        <time>2010-09-30T07:39:01Z</time>
      </trkpt>
      <trkpt lat="45.35207" lon="4.53113">
        <ele>1281</ele>
        <time>2010-09-30T07:39:08Z</time>
      </trkpt>
      <trkpt lat="45.352" lon="4.53123">
        <ele>1269</ele>
        <time>2010-09-30T07:39:14Z</time>
      </trkpt>
      <trkpt lat="45.35193" lon="4.53134">
        <ele>1269</ele>
        <time>2010-09-30T07:39:32Z</time>
      </trkpt>
      <trkpt lat="45.35185" lon="4.53144">
        <ele>1274</ele>
        <time>2010-09-30T07:39:41Z</time>
      </trkpt>
      <trkpt lat="45.35177" lon="4.53155">
        <ele>1274</ele>
        <time>2010-09-30T07:39:50Z</time>
      </trkpt>
      <trkpt lat="45.35172" lon="4.53169">
        <ele>1274</ele>
        <time>2010-09-30T07:39:59Z</time>
      </trkpt>
      <trkpt lat="45.35168" lon="4.53182">
        <ele>1274</ele>
        <time>2010-09-30T07:40:16Z</time>
      </trkpt>
      <trkpt lat="45.3516" lon="4.5319">
        <ele>1274</ele>
        <time>2010-09-30T07:40:22Z</time>
      </trkpt>
      <trkpt lat="45.35153" lon="4.53204">
        <ele>1274</ele>
        <time>2010-09-30T07:40:37Z</time>
      </trkpt>
      <trkpt lat="45.35144" lon="4.53212">
        <ele>1274</ele>
        <time>2010-09-30T07:40:41Z</time>
      </trkpt>
      <trkpt lat="45.35137" lon="4.53223">
        <ele>1274</ele>
        <time>2010-09-30T07:40:47Z</time>
      </trkpt>
      <trkpt lat="45.3513" lon="4.53232">
        <ele>1274</ele>
        <time>2010-09-30T07:40:59Z</time>
      </trkpt>
      <trkpt lat="45.35125" lon="4.53243">
        <ele>1274</ele>
        <time>2010-09-30T07:41:07Z</time>
      </trkpt>
      <trkpt lat="45.35116" lon="4.53251">
        <ele>1266</ele>
        <time>2010-09-30T07:41:15Z</time>
      </trkpt>
      <trkpt lat="45.35108" lon="4.53261">
        <ele>1266</ele>
        <time>2010-09-30T07:41:30Z</time>
      </trkpt>
      <trkpt lat="45.35103" lon="4.53273">
        <ele>1266</ele>
        <time>2010-09-30T07:41:40Z</time>
      </trkpt>
      <trkpt lat="45.35096" lon="4.53284">
        <ele>1271</ele>
        <time>2010-09-30T07:41:54Z</time>
      </trkpt>
      <trkpt lat="45.35087" lon="4.53292">
        <ele>1271</ele>
        <time>2010-09-30T07:42:07Z</time>
      </trkpt>
      <trkpt lat="45.35078" lon="4.53288">
        <ele>1265</ele>
        <time>2010-09-30T07:42:27Z</time>
      </trkpt>
      <trkpt lat="45.35068" lon="4.53289">
        <ele>1265</ele>
        <time>2010-09-30T07:42:38Z</time>
      </trkpt>
      <trkpt lat="45.3506" lon="4.53296">
        <ele>1275</ele>
        <time>2010-09-30T07:42:53Z</time>
      </trkpt>
      <trkpt lat="45.35051" lon="4.53301">
        <ele>1275</ele>
        <time>2010-09-30T07:43:07Z</time>
      </trkpt>
      <trkpt lat="45.35041" lon="4.53305">
        <ele>1264</ele>
        <time>2010-09-30T07:43:14Z</time>
      </trkpt>
      <trkpt lat="45.35034" lon="4.53317">
        <ele>1257</ele>
        <time>2010-09-30T07:43:18Z</time>
      </trkpt>
      <trkpt lat="45.35023" lon="4.53329">
        <ele>1257</ele>
        <time>2010-09-30T07:43:41Z</time>
      </trkpt>
      <trkpt lat="45.35013" lon="4.53329">
        <ele>1257</ele>
        <time>2010-09-30T07:43:50Z</time>
      </trkpt>
      <trkpt lat="45.35009" lon="4.53344">
        <ele>1257</ele>
        <time>2010-09-30T07:44:06Z</time>
      </trkpt>
      <trkpt lat="45.35" lon="4.53347">
        <ele>1257</ele>
        <time>2010-09-30T07:44:15Z</time>
      </trkpt>
      <trkpt lat="45.3499" lon="4.53348">
        <ele>1257</ele>
        <time>2010-09-30T07:44:21Z</time>
      </trkpt>
      <trkpt lat="45.3498" lon="4.53342">
        <ele>1267</ele>
        <time>2010-09-30T07:44:30Z</time>
      </trkpt>
      <trkpt lat="45.3497" lon="4.53338">
        <ele>1259</ele>
        <time>2010-09-30T07:44:37Z</time>
      </trkpt>
      <trkpt lat="45.3496" lon="4.53336">
        <ele>1252</ele>
        <time>2010-09-30T07:44:48Z</time>
      </trkpt>
      <trkpt lat="45.34951" lon="4.53337">
        <ele>1252</ele>
        <time>2010-09-30T07:44:58Z</time>
      </trkpt>
      <trkpt lat="45.34942" lon="4.53331">
        <ele>1252</ele>
        <time>2010-09-30T07:45:11Z</time>
      </trkpt>
      <trkpt lat="45.34933" lon="4.53326">
        <ele>1252</ele>
        <time>2010-09-30T07:45:22Z</time>
      </trkpt>
      <trkpt lat="45.34923" lon="4.53326">
        <ele>1263</ele>
        <time>2010-09-30T07:45:32Z</time>
      </trkpt>
      <trkpt lat="45.34914" lon="4.53325">
        <ele>1263</ele>
        <time>2010-09-30T07:45:38Z</time>
      </trkpt>
      <trkpt lat="45.34904" lon="4.53317">
        <ele>1270</ele>
        <time>2010-09-30T07:45:49Z</time>
      </trkpt>
      <trkpt lat="45.34894" lon="4.53308">
        <ele>1270</ele>
        <time>2010-09-30T07:45:58Z</time>
      </trkpt>
      <trkpt lat="45.34885" lon="4.53302">
        <ele>1264</ele>
        <time>2010-09-30T07:46:04Z</time>
      </trkpt>
      <trkpt lat="45.34882" lon="4.53287">
        <ele>1264</ele>
        <time>2010-09-30T07:46:13Z</time>
      </trkpt>
      <trkpt lat="45.34873" lon="4.53283">
        <ele>1256</ele>
        <time>2010-09-30T07:46:21Z</time>
      </trkpt>
      <trkpt lat="45.34868" lon="4.53269">
        <ele>1256</ele>
        <time>2010-09-30T07:46:31Z</time>
      </trkpt>
      <trkpt lat="45.3486" lon="4.53261">
        <ele>1256</ele>
        <time>2010-09-30T07:46:41Z</time>
      </trkpt>
      <trkpt lat="45.3485" lon="4.5326">
        <ele>1256</ele>
        <time>2010-09-30T07:46:49Z</time>
      </trkpt>
      <trkpt lat="45.3484" lon="4.53262">
        <ele>1256</ele>
        <time>2010-09-30T07:46:58Z</time>
      </trkpt>
      <trkpt lat="45.34841" lon="4.53249">
        <ele>1256</ele>
        <time>2010-09-30T07:47:07Z</time>
      </trkpt>
      <trkpt lat="45.3483" lon="4.53246">
        <ele>1250</ele>
        <time>2010-09-30T07:47:14Z</time>
      </trkpt>
      <trkpt lat="45.34819" lon="4.53243">
        <ele>1250</ele>
        <time>2010-09-30T07:47:22Z</time>
      </trkpt>
      <trkpt lat="45.3481" lon="4.53251">
        <ele>1250</ele>
        <time>2010-09-30T07:47:30Z</time>
      </trkpt>
      <trkpt lat="45.34812" lon="4.53239">
        <ele>1245</ele>
        <time>2010-09-30T07:47:36Z</time>
      </trkpt>
      <trkpt lat="45.34804" lon="4.53232">
        <ele>1238</ele>
        <time>2010-09-30T07:47:45Z</time>
      </trkpt>
      <trkpt lat="45.34796" lon="4.53243">
        <ele>1230</ele>
        <time>2010-09-30T07:47:52Z</time>
      </trkpt>
      <trkpt lat="45.3479" lon="4.53257">
        <ele>1224</ele>
        <time>2010-09-30T07:48:02Z</time>
      </trkpt>
      <trkpt lat="45.34782" lon="4.53266">
        <ele>1239</ele>
        <time>2010-09-30T07:48:22Z</time>
      </trkpt>
      <trkpt lat="45.34774" lon="4.53276">
        <ele>1239</ele>
        <time>2010-09-30T07:48:29Z</time>
      </trkpt>
      <trkpt lat="45.34768" lon="4.53288">
        <ele>1233</ele>
        <time>2010-09-30T07:48:49Z</time>
      </trkpt>
      <trkpt lat="45.34763" lon="4.53301">
        <ele>1233</ele>
        <time>2010-09-30T07:48:56Z</time>
      </trkpt>
      <trkpt lat="45.34762" lon="4.53315">
        <ele>1233</ele>
        <time>2010-09-30T07:49:05Z</time>
      </trkpt>
      <trkpt lat="45.34755" lon="4.53325">
        <ele>1233</ele>
        <time>2010-09-30T07:49:10Z</time>
      </trkpt>
      <trkpt lat="45.34752" lon="4.5334">
        <ele>1238</ele>
        <time>2010-09-30T07:49:29Z</time>
      </trkpt>
      <trkpt lat="45.34747" lon="4.53354">
        <ele>1238</ele>
        <time>2010-09-30T07:49:36Z</time>
      </trkpt>
      <trkpt lat="45.34743" lon="4.53366">
        <ele>1238</ele>
        <time>2010-09-30T07:49:43Z</time>
      </trkpt>
      <trkpt lat="45.3474" lon="4.53379">
        <ele>1238</ele>
        <time>2010-09-30T07:49:53Z</time>
      </trkpt>
      <trkpt lat="45.34732" lon="4.53387">
        <ele>1238</ele>
        <time>2010-09-30T07:50:03Z</time>
      </trkpt>
      <trkpt lat="45.34733" lon="4.534">
        <ele>1238</ele>
        <time>2010-09-30T07:50:16Z</time>
      </trkpt>
      <trkpt lat="45.34731" lon="4.53414">
        <ele>1223</ele>
        <time>2010-09-30T07:50:30Z</time>
      </trkpt>
      <trkpt lat="45.34726" lon="4.53426">
        <ele>1217</ele>
        <time>2010-09-30T07:50:41Z</time>
      </trkpt>
      <trkpt lat="45.3472" lon="4.53438">
        <ele>1217</ele>
        <time>2010-09-30T07:50:50Z</time>
      </trkpt>
      <trkpt lat="45.34714" lon="4.53448">
        <ele>1217</ele>
        <time>2010-09-30T07:51:00Z</time>
      </trkpt>
      <trkpt lat="45.34708" lon="4.53459">
        <ele>1217</ele>
        <time>2010-09-30T07:51:13Z</time>
      </trkpt>
      <trkpt lat="45.34702" lon="4.5347">
        <ele>1217</ele>
        <time>2010-09-30T07:51:25Z</time>
      </trkpt>
      <trkpt lat="45.34695" lon="4.53479">
        <ele>1217</ele>
        <time>2010-09-30T07:51:36Z</time>
      </trkpt>
      <trkpt lat="45.34691" lon="4.53491">
        <ele>1210</ele>
        <time>2010-09-30T07:51:46Z</time>
      </trkpt>
      <trkpt lat="45.34684" lon="4.53502">
        <ele>1210</ele>
        <time>2010-09-30T07:51:57Z</time>
      </trkpt>
      <trkpt lat="45.34678" lon="4.53516">
        <ele>1202</ele>
        <time>2010-09-30T07:52:10Z</time>
      </trkpt>
      <trkpt lat="45.34676" lon="4.5353">
        <ele>1202</ele>
        <time>2010-09-30T07:52:22Z</time>
      </trkpt>
      <trkpt lat="45.34672" lon="4.53542">
        <ele>1202</ele>
        <time>2010-09-30T07:52:42Z</time>
      </trkpt>
      <trkpt lat="45.34664" lon="4.5355">
        <ele>1202</ele>
        <time>2010-09-30T07:53:05Z</time>
      </trkpt>
      <trkpt lat="45.34655" lon="4.53557">
        <ele>1202</ele>
        <time>2010-09-30T07:54:02Z</time>
      </trkpt>
      <trkpt lat="45.3465" lon="4.53568">
        <ele>1202</ele>
        <time>2010-09-30T07:55:16Z</time>
      </trkpt>
      <trkpt lat="45.34647" lon="4.53581">
        <ele>1210</ele>
        <time>2010-09-30T07:55:34Z</time>
      </trkpt>
      <trkpt lat="45.34641" lon="4.53594">
        <ele>1210</ele>
        <time>2010-09-30T07:55:47Z</time>
      </trkpt>
      <trkpt lat="45.3463" lon="4.53598">
        <ele>1210</ele>
        <time>2010-09-30T07:55:58Z</time>
      </trkpt>
      <trkpt lat="45.3462" lon="4.53605">
        <ele>1210</ele>
        <time>2010-09-30T07:56:01Z</time>
      </trkpt>
      <trkpt lat="45.34612" lon="4.53614">
        <ele>1203</ele>
        <time>2010-09-30T07:56:08Z</time>
      </trkpt>
      <trkpt lat="45.34604" lon="4.53621">
        <ele>1209</ele>
        <time>2010-09-30T07:56:23Z</time>
      </trkpt>
      <trkpt lat="45.34596" lon="4.5363">
        <ele>1209</ele>
        <time>2010-09-30T07:56:38Z</time>
      </trkpt>
      <trkpt lat="45.34588" lon="4.53637">
        <ele>1209</ele>
        <time>2010-09-30T07:56:47Z</time>
      </trkpt>
      <trkpt lat="45.3458" lon="4.53648">
        <ele>1209</ele>
        <time>2010-09-30T07:56:55Z</time>
      </trkpt>
      <trkpt lat="45.34571" lon="4.53655">
        <ele>1215</ele>
        <time>2010-09-30T07:57:03Z</time>
      </trkpt>
      <trkpt lat="45.34563" lon="4.53661">
        <ele>1210</ele>
        <time>2010-09-30T07:57:06Z</time>
      </trkpt>
      <trkpt lat="45.34555" lon="4.53669">
        <ele>1199</ele>
        <time>2010-09-30T07:57:13Z</time>
      </trkpt>
      <trkpt lat="45.34547" lon="4.53677">
        <ele>1199</ele>
        <time>2010-09-30T07:57:27Z</time>
      </trkpt>
      <trkpt lat="45.34536" lon="4.5368">
        <ele>1199</ele>
        <time>2010-09-30T07:57:35Z</time>
      </trkpt>
      <trkpt lat="45.34527" lon="4.53685">
        <ele>1199</ele>
        <time>2010-09-30T07:57:49Z</time>
      </trkpt>
      <trkpt lat="45.34519" lon="4.53694">
        <ele>1207</ele>
        <time>2010-09-30T07:58:07Z</time>
      </trkpt>
      <trkpt lat="45.3451" lon="4.53702">
        <ele>1207</ele>
        <time>2010-09-30T07:58:10Z</time>
      </trkpt>
      <trkpt lat="45.34498" lon="4.53711">
        <ele>1207</ele>
        <time>2010-09-30T07:58:16Z</time>
      </trkpt>
      <trkpt lat="45.34493" lon="4.53724">
        <ele>1200</ele>
        <time>2010-09-30T07:58:29Z</time>
      </trkpt>
      <trkpt lat="45.34498" lon="4.53736">
        <ele>1200</ele>
        <time>2010-09-30T07:58:43Z</time>
      </trkpt>
      <trkpt lat="45.34501" lon="4.53748">
        <ele>1190</ele>
        <time>2010-09-30T07:58:52Z</time>
      </trkpt>
      <trkpt lat="45.34503" lon="4.53762">
        <ele>1190</ele>
        <time>2010-09-30T07:59:03Z</time>
      </trkpt>
      <trkpt lat="45.34507" lon="4.53774">
        <ele>1184</ele>
        <time>2010-09-30T07:59:13Z</time>
      </trkpt>
      <trkpt lat="45.34513" lon="4.53785">
        <ele>1184</ele>
        <time>2010-09-30T07:59:26Z</time>
      </trkpt>
      <trkpt lat="45.34514" lon="4.53799">
        <ele>1184</ele>
        <time>2010-09-30T07:59:36Z</time>
      </trkpt>
      <trkpt lat="45.34512" lon="4.53813">
        <ele>1184</ele>
        <time>2010-09-30T07:59:47Z</time>
      </trkpt>
      <trkpt lat="45.34514" lon="4.53826">
        <ele>1184</ele>
        <time>2010-09-30T07:59:55Z</time>
      </trkpt>
      <trkpt lat="45.34518" lon="4.53839">
        <ele>1176</ele>
        <time>2010-09-30T08:00:04Z</time>
      </trkpt>
      <trkpt lat="45.3452" lon="4.53852">
        <ele>1176</ele>
        <time>2010-09-30T08:00:16Z</time>
      </trkpt>
      <trkpt lat="45.34526" lon="4.53864">
        <ele>1176</ele>
        <time>2010-09-30T08:00:26Z</time>
      </trkpt>
      <trkpt lat="45.34524" lon="4.53877">
        <ele>1176</ele>
        <time>2010-09-30T08:00:39Z</time>
      </trkpt>
      <trkpt lat="45.34527" lon="4.53891">
        <ele>1181</ele>
        <time>2010-09-30T08:00:50Z</time>
      </trkpt>
      <trkpt lat="45.34531" lon="4.53903">
        <ele>1181</ele>
        <time>2010-09-30T08:01:02Z</time>
      </trkpt>
      <trkpt lat="45.34534" lon="4.53915">
        <ele>1181</ele>
        <time>2010-09-30T08:01:14Z</time>
      </trkpt>
      <trkpt lat="45.34533" lon="4.53929">
        <ele>1181</ele>
        <time>2010-09-30T08:01:24Z</time>
      </trkpt>
      <trkpt lat="45.34528" lon="4.53941">
        <ele>1181</ele>
        <time>2010-09-30T08:01:32Z</time>
      </trkpt>
      <trkpt lat="45.34529" lon="4.53958">
        <ele>1181</ele>
        <time>2010-09-30T08:01:43Z</time>
      </trkpt>
      <trkpt lat="45.34531" lon="4.53973">
        <ele>1181</ele>
        <time>2010-09-30T08:01:51Z</time>
      </trkpt>
      <trkpt lat="45.3453" lon="4.53988">
        <ele>1174</ele>
        <time>2010-09-30T08:02:02Z</time>
      </trkpt>
      <trkpt lat="45.34528" lon="4.54005">
        <ele>1169</ele>
        <time>2010-09-30T08:02:09Z</time>
      </trkpt>
      <trkpt lat="45.34523" lon="4.54018">
        <ele>1169</ele>
        <time>2010-09-30T08:02:15Z</time>
      </trkpt>
      <trkpt lat="45.34529" lon="4.54028">
        <ele>1169</ele>
        <time>2010-09-30T08:02:24Z</time>
      </trkpt>
      <trkpt lat="45.34535" lon="4.54038">
        <ele>1169</ele>
        <time>2010-09-30T08:02:35Z</time>
      </trkpt>
      <trkpt lat="45.34534" lon="4.54053">
        <ele>1169</ele>
        <time>2010-09-30T08:02:47Z</time>
      </trkpt>
      <trkpt lat="45.34529" lon="4.54064">
        <ele>1163</ele>
        <time>2010-09-30T08:02:55Z</time>
      </trkpt>
      <trkpt lat="45.34529" lon="4.54078">
        <ele>1157</ele>
        <time>2010-09-30T08:03:01Z</time>
      </trkpt>
      <trkpt lat="45.34524" lon="4.54091">
        <ele>1157</ele>
        <time>2010-09-30T08:03:08Z</time>
      </trkpt>
      <trkpt lat="45.34524" lon="4.54105">
        <ele>1157</ele>
        <time>2010-09-30T08:03:19Z</time>
      </trkpt>
      <trkpt lat="45.34515" lon="4.5411">
        <ele>1166</ele>
        <time>2010-09-30T08:03:30Z</time>
      </trkpt>
      <trkpt lat="45.34506" lon="4.54114">
        <ele>1180</ele>
        <time>2010-09-30T08:03:49Z</time>
      </trkpt>
      <trkpt lat="45.34514" lon="4.54107">
        <ele>1161</ele>
        <time>2010-09-30T08:04:20Z</time>
      </trkpt>
      <trkpt lat="45.34505" lon="4.54104">
        <ele>1173</ele>
        <time>2010-09-30T08:04:44Z</time>
      </trkpt>
      <trkpt lat="45.34515" lon="4.54101">
        <ele>1173</ele>
        <time>2010-09-30T08:05:35Z</time>
      </trkpt>
      <trkpt lat="45.34522" lon="4.54112">
        <ele>1161</ele>
        <time>2010-09-30T08:05:44Z</time>
      </trkpt>
      <trkpt lat="45.34512" lon="4.54109">
        <ele>1161</ele>
        <time>2010-09-30T08:06:49Z</time>
      </trkpt>
      <trkpt lat="45.34502" lon="4.54105">
        <ele>1175</ele>
        <time>2010-09-30T08:07:09Z</time>
      </trkpt>
      <trkpt lat="45.34493" lon="4.541">
        <ele>1175</ele>
        <time>2010-09-30T08:07:16Z</time>
      </trkpt>
      <trkpt lat="45.34482" lon="4.54104">
        <ele>1166</ele>
        <time>2010-09-30T08:07:21Z</time>
      </trkpt>
      <trkpt lat="45.34472" lon="4.54106">
        <ele>1149</ele>
        <time>2010-09-30T08:07:37Z</time>
      </trkpt>
      <trkpt lat="45.34465" lon="4.54097">
        <ele>1149</ele>
        <time>2010-09-30T08:07:58Z</time>
      </trkpt>
      <trkpt lat="45.34463" lon="4.54083">
        <ele>1149</ele>
        <time>2010-09-30T08:08:06Z</time>
      </trkpt>
      <trkpt lat="45.34457" lon="4.54071">
        <ele>1159</ele>
        <time>2010-09-30T08:08:22Z</time>
      </trkpt>
      <trkpt lat="45.34448" lon="4.54073">
        <ele>1159</ele>
        <time>2010-09-30T08:08:28Z</time>
      </trkpt>
      <trkpt lat="45.34439" lon="4.54065">
        <ele>1159</ele>
        <time>2010-09-30T08:08:36Z</time>
      </trkpt>
      <trkpt lat="45.3443" lon="4.54061">
        <ele>1166</ele>
        <time>2010-09-30T08:08:50Z</time>
      </trkpt>
      <trkpt lat="45.3442" lon="4.54055">
        <ele>1166</ele>
        <time>2010-09-30T08:08:59Z</time>
      </trkpt>
      <trkpt lat="45.34411" lon="4.54054">
        <ele>1166</ele>
        <time>2010-09-30T08:09:06Z</time>
      </trkpt>
      <trkpt lat="45.34402" lon="4.54048">
        <ele>1166</ele>
        <time>2010-09-30T08:09:14Z</time>
      </trkpt>
      <trkpt lat="45.34393" lon="4.54043">
        <ele>1166</ele>
        <time>2010-09-30T08:09:21Z</time>
      </trkpt>
      <trkpt lat="45.34382" lon="4.54043">
        <ele>1160</ele>
        <time>2010-09-30T08:09:28Z</time>
      </trkpt>
      <trkpt lat="45.34373" lon="4.54038">
        <ele>1160</ele>
        <time>2010-09-30T08:09:37Z</time>
      </trkpt>
      <trkpt lat="45.34363" lon="4.54038">
        <ele>1160</ele>
        <time>2010-09-30T08:09:49Z</time>
      </trkpt>
      <trkpt lat="45.34352" lon="4.54036">
        <ele>1160</ele>
        <time>2010-09-30T08:09:59Z</time>
      </trkpt>
      <trkpt lat="45.34342" lon="4.54036">
        <ele>1160</ele>
        <time>2010-09-30T08:10:06Z</time>
      </trkpt>
      <trkpt lat="45.34334" lon="4.54032">
        <ele>1160</ele>
        <time>2010-09-30T08:10:14Z</time>
      </trkpt>
      <trkpt lat="45.34324" lon="4.5403">
        <ele>1160</ele>
        <time>2010-09-30T08:10:23Z</time>
      </trkpt>
      <trkpt lat="45.34314" lon="4.5403">
        <ele>1160</ele>
        <time>2010-09-30T08:10:35Z</time>
      </trkpt>
      <trkpt lat="45.34304" lon="4.54028">
        <ele>1160</ele>
        <time>2010-09-30T08:10:43Z</time>
      </trkpt>
      <trkpt lat="45.34294" lon="4.54027">
        <ele>1160</ele>
        <time>2010-09-30T08:10:54Z</time>
      </trkpt>
      <trkpt lat="45.34284" lon="4.54023">
        <ele>1160</ele>
        <time>2010-09-30T08:11:03Z</time>
      </trkpt>
      <trkpt lat="45.34275" lon="4.5402">
        <ele>1160</ele>
        <time>2010-09-30T08:11:13Z</time>
      </trkpt>
      <trkpt lat="45.34266" lon="4.54016">
        <ele>1160</ele>
        <time>2010-09-30T08:11:23Z</time>
      </trkpt>
      <trkpt lat="45.34256" lon="4.54014">
        <ele>1160</ele>
        <time>2010-09-30T08:11:32Z</time>
      </trkpt>
      <trkpt lat="45.34247" lon="4.54007">
        <ele>1160</ele>
        <time>2010-09-30T08:11:40Z</time>
      </trkpt>
      <trkpt lat="45.34237" lon="4.54006">
        <ele>1155</ele>
        <time>2010-09-30T08:11:46Z</time>
      </trkpt>
      <trkpt lat="45.34228" lon="4.54">
        <ele>1155</ele>
        <time>2010-09-30T08:11:54Z</time>
      </trkpt>
      <trkpt lat="45.34219" lon="4.53994">
        <ele>1155</ele>
        <time>2010-09-30T08:12:04Z</time>
      </trkpt>
      <trkpt lat="45.34209" lon="4.53991">
        <ele>1155</ele>
        <time>2010-09-30T08:12:13Z</time>
      </trkpt>
      <trkpt lat="45.342" lon="4.53987">
        <ele>1162</ele>
        <time>2010-09-30T08:12:22Z</time>
      </trkpt>
      <trkpt lat="45.34193" lon="4.53978">
        <ele>1168</ele>
        <time>2010-09-30T08:12:32Z</time>
      </trkpt>
      <trkpt lat="45.34185" lon="4.53968">
        <ele>1168</ele>
        <time>2010-09-30T08:12:43Z</time>
      </trkpt>
      <trkpt lat="45.34178" lon="4.53959">
        <ele>1168</ele>
        <time>2010-09-30T08:12:53Z</time>
      </trkpt>
      <trkpt lat="45.3418" lon="4.53945">
        <ele>1175</ele>
        <time>2010-09-30T08:13:04Z</time>
      </trkpt>
      <trkpt lat="45.34173" lon="4.53934">
        <ele>1175</ele>
        <time>2010-09-30T08:13:15Z</time>
      </trkpt>
      <trkpt lat="45.34173" lon="4.53921">
        <ele>1175</ele>
        <time>2010-09-30T08:13:25Z</time>
      </trkpt>
      <trkpt lat="45.34175" lon="4.53907">
        <ele>1175</ele>
        <time>2010-09-30T08:13:34Z</time>
      </trkpt>
      <trkpt lat="45.34178" lon="4.53895">
        <ele>1175</ele>
        <time>2010-09-30T08:13:42Z</time>
      </trkpt>
      <trkpt lat="45.3418" lon="4.53881">
        <ele>1175</ele>
        <time>2010-09-30T08:13:52Z</time>
      </trkpt>
      <trkpt lat="45.34185" lon="4.53868">
        <ele>1183</ele>
        <time>2010-09-30T08:14:01Z</time>
      </trkpt>
      <trkpt lat="45.34185" lon="4.53855">
        <ele>1183</ele>
        <time>2010-09-30T08:14:10Z</time>
      </trkpt>
      <trkpt lat="45.34182" lon="4.53842">
        <ele>1183</ele>
        <time>2010-09-30T08:14:19Z</time>
      </trkpt>
      <trkpt lat="45.34176" lon="4.53829">
        <ele>1175</ele>
        <time>2010-09-30T08:14:27Z</time>
      </trkpt>
      <trkpt lat="45.34174" lon="4.53816">
        <ele>1175</ele>
        <time>2010-09-30T08:14:37Z</time>
      </trkpt>
      <trkpt lat="45.34174" lon="4.53803">
        <ele>1175</ele>
        <time>2010-09-30T08:14:49Z</time>
      </trkpt>
      <trkpt lat="45.34171" lon="4.5379">
        <ele>1175</ele>
        <time>2010-09-30T08:15:05Z</time>
      </trkpt>
      <trkpt lat="45.34163" lon="4.53782">
        <ele>1175</ele>
        <time>2010-09-30T08:17:52Z</time>
      </trkpt>
      <trkpt lat="45.34162" lon="4.53769">
        <ele>1170</ele>
        <time>2010-09-30T08:18:07Z</time>
      </trkpt>
      <trkpt lat="45.34161" lon="4.53755">
        <ele>1170</ele>
        <time>2010-09-30T08:18:17Z</time>
      </trkpt>
      <trkpt lat="45.34162" lon="4.53742">
        <ele>1170</ele>
        <time>2010-09-30T08:18:29Z</time>
      </trkpt>
      <trkpt lat="45.34159" lon="4.53729">
        <ele>1176</ele>
        <time>2010-09-30T08:18:40Z</time>
      </trkpt>
      <trkpt lat="45.34155" lon="4.53717">
        <ele>1182</ele>
        <time>2010-09-30T08:18:55Z</time>
      </trkpt>
      <trkpt lat="45.34149" lon="4.53706">
        <ele>1182</ele>
        <time>2010-09-30T08:19:04Z</time>
      </trkpt>
      <trkpt lat="45.34146" lon="4.53692">
        <ele>1182</ele>
        <time>2010-09-30T08:19:14Z</time>
      </trkpt>
      <trkpt lat="45.34145" lon="4.53678">
        <ele>1182</ele>
        <time>2010-09-30T08:19:20Z</time>
      </trkpt>
      <trkpt lat="45.34144" lon="4.53665">
        <ele>1182</ele>
        <time>2010-09-30T08:19:26Z</time>
      </trkpt>
      <trkpt lat="45.3414" lon="4.53651">
        <ele>1182</ele>
        <time>2010-09-30T08:19:34Z</time>
      </trkpt>
      <trkpt lat="45.3414" lon="4.53637">
        <ele>1182</ele>
        <time>2010-09-30T08:19:42Z</time>
      </trkpt>
      <trkpt lat="45.34138" lon="4.53623">
        <ele>1177</ele>
        <time>2010-09-30T08:19:52Z</time>
      </trkpt>
      <trkpt lat="45.34137" lon="4.5361">
        <ele>1177</ele>
        <time>2010-09-30T08:20:59Z</time>
      </trkpt>
      <trkpt lat="45.34135" lon="4.53597">
        <ele>1183</ele>
        <time>2010-09-30T08:21:23Z</time>
      </trkpt>
      <trkpt lat="45.34144" lon="4.53601">
        <ele>1183</ele>
        <time>2010-09-30T08:28:47Z</time>
      </trkpt>
      <trkpt lat="45.34137" lon="4.53611">
        <ele>1188</ele>
        <time>2010-09-30T08:32:41Z</time>
      </trkpt>
      <trkpt lat="45.34144" lon="4.53622">
        <ele>1188</ele>
        <time>2010-09-30T08:32:55Z</time>
      </trkpt>
      <trkpt lat="45.34143" lon="4.53636">
        <ele>1188</ele>
        <time>2010-09-30T08:33:13Z</time>
      </trkpt>
      <trkpt lat="45.34145" lon="4.53649">
        <ele>1200</ele>
        <time>2010-09-30T08:33:30Z</time>
      </trkpt>
      <trkpt lat="45.34153" lon="4.5366">
        <ele>1193</ele>
        <time>2010-09-30T08:33:38Z</time>
      </trkpt>
      <trkpt lat="45.34159" lon="4.53673">
        <ele>1193</ele>
        <time>2010-09-30T08:33:47Z</time>
      </trkpt>
      <trkpt lat="45.34165" lon="4.53683">
        <ele>1193</ele>
        <time>2010-09-30T08:33:55Z</time>
      </trkpt>
      <trkpt lat="45.34172" lon="4.53691">
        <ele>1193</ele>
        <time>2010-09-30T08:34:07Z</time>
      </trkpt>
      <trkpt lat="45.34181" lon="4.53697">
        <ele>1207</ele>
        <time>2010-09-30T08:34:25Z</time>
      </trkpt>
      <trkpt lat="45.34191" lon="4.53698">
        <ele>1207</ele>
        <time>2010-09-30T08:34:41Z</time>
      </trkpt>
      <trkpt lat="45.34201" lon="4.53697">
        <ele>1220</ele>
        <time>2010-09-30T08:35:09Z</time>
      </trkpt>
      <trkpt lat="45.3421" lon="4.53693">
        <ele>1226</ele>
        <time>2010-09-30T08:35:26Z</time>
      </trkpt>
      <trkpt lat="45.34218" lon="4.53687">
        <ele>1226</ele>
        <time>2010-09-30T08:35:40Z</time>
      </trkpt>
      <trkpt lat="45.34228" lon="4.53685">
        <ele>1235</ele>
        <time>2010-09-30T08:36:01Z</time>
      </trkpt>
      <trkpt lat="45.34237" lon="4.53684">
        <ele>1235</ele>
        <time>2010-09-30T08:36:14Z</time>
      </trkpt>
      <trkpt lat="45.34247" lon="4.53685">
        <ele>1235</ele>
        <time>2010-09-30T08:36:25Z</time>
      </trkpt>
      <trkpt lat="45.34257" lon="4.53686">
        <ele>1235</ele>
        <time>2010-09-30T08:36:36Z</time>
      </trkpt>
      <trkpt lat="45.34266" lon="4.53682">
        <ele>1225</ele>
        <time>2010-09-30T08:36:46Z</time>
      </trkpt>
      <trkpt lat="45.34275" lon="4.53677">
        <ele>1225</ele>
        <time>2010-09-30T08:36:57Z</time>
      </trkpt>
      <trkpt lat="45.34283" lon="4.53669">
        <ele>1219</ele>
        <time>2010-09-30T08:37:06Z</time>
      </trkpt>
      <trkpt lat="45.34289" lon="4.53658">
        <ele>1219</ele>
        <time>2010-09-30T08:37:21Z</time>
      </trkpt>
      <trkpt lat="45.34292" lon="4.53642">
        <ele>1219</ele>
        <time>2010-09-30T08:37:32Z</time>
      </trkpt>
      <trkpt lat="45.34301" lon="4.53636">
        <ele>1219</ele>
        <time>2010-09-30T08:37:38Z</time>
      </trkpt>
      <trkpt lat="45.3431" lon="4.53632">
        <ele>1219</ele>
        <time>2010-09-30T08:37:43Z</time>
      </trkpt>
      <trkpt lat="45.34317" lon="4.53624">
        <ele>1219</ele>
        <time>2010-09-30T08:37:55Z</time>
      </trkpt>
      <trkpt lat="45.34322" lon="4.53612">
        <ele>1219</ele>
        <time>2010-09-30T08:38:07Z</time>
      </trkpt>
      <trkpt lat="45.34322" lon="4.53599">
        <ele>1225</ele>
        <time>2010-09-30T08:38:24Z</time>
      </trkpt>
      <trkpt lat="45.34327" lon="4.53587">
        <ele>1225</ele>
        <time>2010-09-30T08:38:38Z</time>
      </trkpt>
      <trkpt lat="45.34335" lon="4.5358">
        <ele>1225</ele>
        <time>2010-09-30T08:38:54Z</time>
      </trkpt>
      <trkpt lat="45.34341" lon="4.53569">
        <ele>1233</ele>
        <time>2010-09-30T08:39:10Z</time>
      </trkpt>
      <trkpt lat="45.34348" lon="4.53559">
        <ele>1239</ele>
        <time>2010-09-30T08:39:29Z</time>
      </trkpt>
      <trkpt lat="45.34353" lon="4.53549">
        <ele>1239</ele>
        <time>2010-09-30T08:39:46Z</time>
      </trkpt>
      <trkpt lat="45.34361" lon="4.5354">
        <ele>1233</ele>
        <time>2010-09-30T08:39:58Z</time>
      </trkpt>
      <trkpt lat="45.34371" lon="4.53532">
        <ele>1238</ele>
        <time>2010-09-30T08:40:12Z</time>
      </trkpt>
      <trkpt lat="45.34379" lon="4.53524">
        <ele>1238</ele>
        <time>2010-09-30T08:40:24Z</time>
      </trkpt>
      <trkpt lat="45.34383" lon="4.5351">
        <ele>1238</ele>
        <time>2010-09-30T08:40:37Z</time>
      </trkpt>
      <trkpt lat="45.34387" lon="4.53498">
        <ele>1238</ele>
        <time>2010-09-30T08:40:53Z</time>
      </trkpt>
      <trkpt lat="45.34393" lon="4.53487">
        <ele>1238</ele>
        <time>2010-09-30T08:41:06Z</time>
      </trkpt>
      <trkpt lat="45.34395" lon="4.53474">
        <ele>1238</ele>
        <time>2010-09-30T08:41:20Z</time>
      </trkpt>
      <trkpt lat="45.34398" lon="4.53461">
        <ele>1238</ele>
        <time>2010-09-30T08:41:36Z</time>
      </trkpt>
      <trkpt lat="45.344" lon="4.53448">
        <ele>1244</ele>
        <time>2010-09-30T08:41:51Z</time>
      </trkpt>
      <trkpt lat="45.34406" lon="4.53438">
        <ele>1249</ele>
        <time>2010-09-30T08:42:09Z</time>
      </trkpt>
      <trkpt lat="45.34415" lon="4.53433">
        <ele>1265</ele>
        <time>2010-09-30T08:42:31Z</time>
      </trkpt>
      <trkpt lat="45.3442" lon="4.53421">
        <ele>1265</ele>
        <time>2010-09-30T08:42:51Z</time>
      </trkpt>
      <trkpt lat="45.34426" lon="4.53409">
        <ele>1265</ele>
        <time>2010-09-30T08:42:59Z</time>
      </trkpt>
      <trkpt lat="45.34429" lon="4.53395">
        <ele>1255</ele>
        <time>2010-09-30T08:43:13Z</time>
      </trkpt>
      <trkpt lat="45.34429" lon="4.53378">
        <ele>1248</ele>
        <time>2010-09-30T08:43:22Z</time>
      </trkpt>
      <trkpt lat="45.34439" lon="4.53373">
        <ele>1255</ele>
        <time>2010-09-30T08:43:34Z</time>
      </trkpt>
      <trkpt lat="45.34447" lon="4.53366">
        <ele>1264</ele>
        <time>2010-09-30T08:43:45Z</time>
      </trkpt>
      <trkpt lat="45.34456" lon="4.53362">
        <ele>1264</ele>
        <time>2010-09-30T08:43:55Z</time>
      </trkpt>
      <trkpt lat="45.34465" lon="4.53356">
        <ele>1273</ele>
        <time>2010-09-30T08:44:07Z</time>
      </trkpt>
      <trkpt lat="45.34467" lon="4.53342">
        <ele>1273</ele>
        <time>2010-09-30T08:44:17Z</time>
      </trkpt>
      <trkpt lat="45.34476" lon="4.53338">
        <ele>1268</ele>
        <time>2010-09-30T08:44:26Z</time>
      </trkpt>
      <trkpt lat="45.34486" lon="4.53331">
        <ele>1268</ele>
        <time>2010-09-30T08:44:35Z</time>
      </trkpt>
      <trkpt lat="45.34489" lon="4.53317">
        <ele>1268</ele>
        <time>2010-09-30T08:44:44Z</time>
      </trkpt>
      <trkpt lat="45.34498" lon="4.53312">
        <ele>1268</ele>
        <time>2010-09-30T08:44:54Z</time>
      </trkpt>
      <trkpt lat="45.34505" lon="4.53303">
        <ele>1268</ele>
        <time>2010-09-30T08:45:07Z</time>
      </trkpt>
      <trkpt lat="45.34514" lon="4.53298">
        <ele>1268</ele>
        <time>2010-09-30T08:45:15Z</time>
      </trkpt>
      <trkpt lat="45.34512" lon="4.53284">
        <ele>1275</ele>
        <time>2010-09-30T08:45:31Z</time>
      </trkpt>
      <trkpt lat="45.34516" lon="4.5327">
        <ele>1275</ele>
        <time>2010-09-30T08:45:44Z</time>
      </trkpt>
      <trkpt lat="45.34526" lon="4.53267">
        <ele>1275</ele>
        <time>2010-09-30T08:45:55Z</time>
      </trkpt>
      <trkpt lat="45.34527" lon="4.53253">
        <ele>1275</ele>
        <time>2010-09-30T08:46:06Z</time>
      </trkpt>
      <trkpt lat="45.34531" lon="4.5324">
        <ele>1275</ele>
        <time>2010-09-30T08:46:18Z</time>
      </trkpt>
      <trkpt lat="45.34541" lon="4.53232">
        <ele>1284</ele>
        <time>2010-09-30T08:46:34Z</time>
      </trkpt>
      <trkpt lat="45.34548" lon="4.53223">
        <ele>1284</ele>
        <time>2010-09-30T08:46:46Z</time>
      </trkpt>
      <trkpt lat="45.34554" lon="4.53212">
        <ele>1284</ele>
        <time>2010-09-30T08:46:53Z</time>
      </trkpt>
      <trkpt lat="45.34557" lon="4.53198">
        <ele>1284</ele>
        <time>2010-09-30T08:47:02Z</time>
      </trkpt>
      <trkpt lat="45.3456" lon="4.53184">
        <ele>1284</ele>
        <time>2010-09-30T08:47:17Z</time>
      </trkpt>
      <trkpt lat="45.34567" lon="4.53175">
        <ele>1284</ele>
        <time>2010-09-30T08:47:26Z</time>
      </trkpt>
      <trkpt lat="45.34574" lon="4.53166">
        <ele>1284</ele>
        <time>2010-09-30T08:47:35Z</time>
      </trkpt>
      <trkpt lat="45.34583" lon="4.53162">
        <ele>1290</ele>
        <time>2010-09-30T08:47:43Z</time>
      </trkpt>
      <trkpt lat="45.34576" lon="4.5315">
        <ele>1290</ele>
        <time>2010-09-30T08:47:52Z</time>
      </trkpt>
      <trkpt lat="45.34582" lon="4.53138">
        <ele>1284</ele>
        <time>2010-09-30T08:48:02Z</time>
      </trkpt>
      <trkpt lat="45.34587" lon="4.53126">
        <ele>1284</ele>
        <time>2010-09-30T08:48:12Z</time>
      </trkpt>
      <trkpt lat="45.34586" lon="4.53111">
        <ele>1284</ele>
        <time>2010-09-30T08:48:21Z</time>
      </trkpt>
      <trkpt lat="45.34593" lon="4.53099">
        <ele>1284</ele>
        <time>2010-09-30T08:48:35Z</time>
      </trkpt>
      <trkpt lat="45.34601" lon="4.53091">
        <ele>1284</ele>
        <time>2010-09-30T08:48:43Z</time>
      </trkpt>
      <trkpt lat="45.3461" lon="4.53083">
        <ele>1284</ele>
        <time>2010-09-30T08:48:53Z</time>
      </trkpt>
      <trkpt lat="45.34617" lon="4.53072">
        <ele>1284</ele>
        <time>2010-09-30T08:49:00Z</time>
      </trkpt>
      <trkpt lat="45.34614" lon="4.53059">
        <ele>1279</ele>
        <time>2010-09-30T08:49:08Z</time>
      </trkpt>
      <trkpt lat="45.34608" lon="4.53046">
        <ele>1279</ele>
        <time>2010-09-30T08:49:14Z</time>
      </trkpt>
      <trkpt lat="45.346" lon="4.53036">
        <ele>1279</ele>
        <time>2010-09-30T08:49:21Z</time>
      </trkpt>
      <trkpt lat="45.34606" lon="4.53024">
        <ele>1279</ele>
        <time>2010-09-30T08:49:31Z</time>
      </trkpt>
      <trkpt lat="45.34607" lon="4.5301">
        <ele>1279</ele>
        <time>2010-09-30T08:49:42Z</time>
      </trkpt>
      <trkpt lat="45.34614" lon="4.53001">
        <ele>1288</ele>
        <time>2010-09-30T08:49:52Z</time>
      </trkpt>
      <trkpt lat="45.34616" lon="4.52986">
        <ele>1282</ele>
        <time>2010-09-30T08:50:02Z</time>
      </trkpt>
      <trkpt lat="45.34612" lon="4.52974">
        <ele>1282</ele>
        <time>2010-09-30T08:50:10Z</time>
      </trkpt>
      <trkpt lat="45.34621" lon="4.52967">
        <ele>1282</ele>
        <time>2010-09-30T08:50:15Z</time>
      </trkpt>
      <trkpt lat="45.3463" lon="4.52963">
        <ele>1282</ele>
        <time>2010-09-30T08:50:23Z</time>
      </trkpt>
      <trkpt lat="45.34638" lon="4.52953">
        <ele>1282</ele>
        <time>2010-09-30T08:50:32Z</time>
      </trkpt>
      <trkpt lat="45.34647" lon="4.52944">
        <ele>1282</ele>
        <time>2010-09-30T08:50:43Z</time>
      </trkpt>
      <trkpt lat="45.34655" lon="4.52938">
        <ele>1282</ele>
        <time>2010-09-30T08:50:49Z</time>
      </trkpt>
      <trkpt lat="45.34657" lon="4.52924">
        <ele>1294</ele>
        <time>2010-09-30T08:51:01Z</time>
      </trkpt>
      <trkpt lat="45.3466" lon="4.52908">
        <ele>1301</ele>
        <time>2010-09-30T08:51:14Z</time>
      </trkpt>
      <trkpt lat="45.34667" lon="4.52898">
        <ele>1301</ele>
        <time>2010-09-30T08:51:26Z</time>
      </trkpt>
      <trkpt lat="45.34674" lon="4.52889">
        <ele>1307</ele>
        <time>2010-09-30T08:51:36Z</time>
      </trkpt>
      <trkpt lat="45.34676" lon="4.52873">
        <ele>1307</ele>
        <time>2010-09-30T08:51:44Z</time>
      </trkpt>
      <trkpt lat="45.34683" lon="4.52863">
        <ele>1307</ele>
        <time>2010-09-30T08:51:50Z</time>
      </trkpt>
      <trkpt lat="45.34685" lon="4.5285">
        <ele>1299</ele>
        <time>2010-09-30T08:51:57Z</time>
      </trkpt>
      <trkpt lat="45.34692" lon="4.52841">
        <ele>1299</ele>
        <time>2010-09-30T08:52:06Z</time>
      </trkpt>
      <trkpt lat="45.34698" lon="4.52826">
        <ele>1289</ele>
        <time>2010-09-30T08:52:20Z</time>
      </trkpt>
      <trkpt lat="45.347" lon="4.52811">
        <ele>1289</ele>
        <time>2010-09-30T08:52:29Z</time>
      </trkpt>
      <trkpt lat="45.34698" lon="4.52798">
        <ele>1295</ele>
        <time>2010-09-30T08:52:36Z</time>
      </trkpt>
      <trkpt lat="45.34707" lon="4.52791">
        <ele>1295</ele>
        <time>2010-09-30T08:52:44Z</time>
      </trkpt>
      <trkpt lat="45.34711" lon="4.52778">
        <ele>1295</ele>
        <time>2010-09-30T08:52:51Z</time>
      </trkpt>
      <trkpt lat="45.34708" lon="4.52763">
        <ele>1289</ele>
        <time>2010-09-30T08:52:57Z</time>
      </trkpt>
      <trkpt lat="45.34715" lon="4.52752">
        <ele>1289</ele>
        <time>2010-09-30T08:53:16Z</time>
      </trkpt>
      <trkpt lat="45.34724" lon="4.52746">
        <ele>1289</ele>
        <time>2010-09-30T08:53:24Z</time>
      </trkpt>
      <trkpt lat="45.34728" lon="4.52733">
        <ele>1289</ele>
        <time>2010-09-30T08:53:34Z</time>
      </trkpt>
      <trkpt lat="45.34731" lon="4.5272">
        <ele>1294</ele>
        <time>2010-09-30T08:53:41Z</time>
      </trkpt>
      <trkpt lat="45.34725" lon="4.5271">
        <ele>1294</ele>
        <time>2010-09-30T08:53:45Z</time>
      </trkpt>
      <trkpt lat="45.34723" lon="4.52696">
        <ele>1286</ele>
        <time>2010-09-30T08:54:07Z</time>
      </trkpt>
      <trkpt lat="45.3473" lon="4.52685">
        <ele>1279</ele>
        <time>2010-09-30T08:54:33Z</time>
      </trkpt>
      <trkpt lat="45.34722" lon="4.52692">
        <ele>1279</ele>
        <time>2010-09-30T08:55:06Z</time>
      </trkpt>
      <trkpt lat="45.34713" lon="4.527">
        <ele>1296</ele>
        <time>2010-09-30T08:55:53Z</time>
      </trkpt>
      <trkpt lat="45.34704" lon="4.52705">
        <ele>1303</ele>
        <time>2010-09-30T08:56:06Z</time>
      </trkpt>
      <trkpt lat="45.34713" lon="4.52716">
        <ele>1303</ele>
        <time>2010-09-30T08:56:28Z</time>
      </trkpt>
      <trkpt lat="45.34703" lon="4.52709">
        <ele>1284</ele>
        <time>2010-09-30T08:57:28Z</time>
      </trkpt>
      <trkpt lat="45.34695" lon="4.52701">
        <ele>1284</ele>
        <time>2010-09-30T08:57:38Z</time>
      </trkpt>
      <trkpt lat="45.34702" lon="4.5271">
        <ele>1303</ele>
        <time>2010-09-30T08:57:49Z</time>
      </trkpt>
      <trkpt lat="45.34712" lon="4.52708">
        <ele>1297</ele>
        <time>2010-09-30T08:58:13Z</time>
      </trkpt>
      <trkpt lat="45.34704" lon="4.52716">
        <ele>1297</ele>
        <time>2010-09-30T08:58:37Z</time>
      </trkpt>
      <trkpt lat="45.34694" lon="4.52718">
        <ele>1297</ele>
        <time>2010-09-30T08:58:44Z</time>
      </trkpt>
      <trkpt lat="45.34686" lon="4.52726">
        <ele>1304</ele>
        <time>2010-09-30T08:58:50Z</time>
      </trkpt>
      <trkpt lat="45.34678" lon="4.5274">
        <ele>1304</ele>
        <time>2010-09-30T08:59:03Z</time>
      </trkpt>
      <trkpt lat="45.34671" lon="4.52749">
        <ele>1304</ele>
        <time>2010-09-30T08:59:14Z</time>
      </trkpt>
      <trkpt lat="45.3466" lon="4.52752">
        <ele>1304</ele>
        <time>2010-09-30T08:59:24Z</time>
      </trkpt>
      <trkpt lat="45.3465" lon="4.52748">
        <ele>1298</ele>
        <time>2010-09-30T08:59:31Z</time>
      </trkpt>
      <trkpt lat="45.34639" lon="4.5275">
        <ele>1298</ele>
        <time>2010-09-30T08:59:39Z</time>
      </trkpt>
      <trkpt lat="45.34629" lon="4.52748">
        <ele>1298</ele>
        <time>2010-09-30T08:59:52Z</time>
      </trkpt>
      <trkpt lat="45.34619" lon="4.52748">
        <ele>1298</ele>
        <time>2010-09-30T09:00:03Z</time>
      </trkpt>
      <trkpt lat="45.3461" lon="4.52749">
        <ele>1298</ele>
        <time>2010-09-30T09:00:15Z</time>
      </trkpt>
      <trkpt lat="45.34598" lon="4.52748">
        <ele>1305</ele>
        <time>2010-09-30T09:00:23Z</time>
      </trkpt>
      <trkpt lat="45.34589" lon="4.52749">
        <ele>1305</ele>
        <time>2010-09-30T09:00:32Z</time>
      </trkpt>
      <trkpt lat="45.34577" lon="4.52755">
        <ele>1305</ele>
        <time>2010-09-30T09:00:43Z</time>
      </trkpt>
      <trkpt lat="45.34569" lon="4.52761">
        <ele>1310</ele>
        <time>2010-09-30T09:00:49Z</time>
      </trkpt>
      <trkpt lat="45.34562" lon="4.5277">
        <ele>1310</ele>
        <time>2010-09-30T09:01:03Z</time>
      </trkpt>
      <trkpt lat="45.34553" lon="4.52775">
        <ele>1310</ele>
        <time>2010-09-30T09:01:10Z</time>
      </trkpt>
      <trkpt lat="45.34543" lon="4.52781">
        <ele>1315</ele>
        <time>2010-09-30T09:01:17Z</time>
      </trkpt>
      <trkpt lat="45.34534" lon="4.52785">
        <ele>1315</ele>
        <time>2010-09-30T09:01:30Z</time>
      </trkpt>
      <trkpt lat="45.34524" lon="4.52786">
        <ele>1308</ele>
        <time>2010-09-30T09:01:35Z</time>
      </trkpt>
      <trkpt lat="45.34516" lon="4.52795">
        <ele>1308</ele>
        <time>2010-09-30T09:01:44Z</time>
      </trkpt>
      <trkpt lat="45.34505" lon="4.52798">
        <ele>1308</ele>
        <time>2010-09-30T09:01:55Z</time>
      </trkpt>
      <trkpt lat="45.34495" lon="4.52798">
        <ele>1302</ele>
        <time>2010-09-30T09:02:04Z</time>
      </trkpt>
      <trkpt lat="45.34485" lon="4.52795">
        <ele>1302</ele>
        <time>2010-09-30T09:02:11Z</time>
      </trkpt>
      <trkpt lat="45.34475" lon="4.52798">
        <ele>1302</ele>
        <time>2010-09-30T09:02:22Z</time>
      </trkpt>
      <trkpt lat="45.34465" lon="4.52798">
        <ele>1302</ele>
        <time>2010-09-30T09:02:29Z</time>
      </trkpt>
      <trkpt lat="45.34455" lon="4.52797">
        <ele>1302</ele>
        <time>2010-09-30T09:02:36Z</time>
      </trkpt>
      <trkpt lat="45.34444" lon="4.52796">
        <ele>1302</ele>
        <time>2010-09-30T09:02:46Z</time>
      </trkpt>
      <trkpt lat="45.34433" lon="4.52796">
        <ele>1302</ele>
        <time>2010-09-30T09:02:54Z</time>
      </trkpt>
      <trkpt lat="45.34424" lon="4.52798">
        <ele>1296</ele>
        <time>2010-09-30T09:03:02Z</time>
      </trkpt>
      <trkpt lat="45.34413" lon="4.52797">
        <ele>1296</ele>
        <time>2010-09-30T09:03:08Z</time>
      </trkpt>
      <trkpt lat="45.34404" lon="4.52798">
        <ele>1296</ele>
        <time>2010-09-30T09:03:16Z</time>
      </trkpt>
      <trkpt lat="45.34394" lon="4.52796">
        <ele>1296</ele>
        <time>2010-09-30T09:03:24Z</time>
      </trkpt>
      <trkpt lat="45.34385" lon="4.52794">
        <ele>1296</ele>
        <time>2010-09-30T09:03:36Z</time>
      </trkpt>
      <trkpt lat="45.34375" lon="4.52792">
        <ele>1296</ele>
        <time>2010-09-30T09:04:38Z</time>
      </trkpt>
      <trkpt lat="45.34366" lon="4.52788">
        <ele>1296</ele>
        <time>2010-09-30T09:04:48Z</time>
      </trkpt>
      <trkpt lat="45.34357" lon="4.52781">
        <ele>1296</ele>
        <time>2010-09-30T09:04:59Z</time>
      </trkpt>
      <trkpt lat="45.34349" lon="4.52774">
        <ele>1296</ele>
        <time>2010-09-30T09:05:09Z</time>
      </trkpt>
      <trkpt lat="45.34341" lon="4.52765">
        <ele>1296</ele>
        <time>2010-09-30T09:05:18Z</time>
      </trkpt>
      <trkpt lat="45.34333" lon="4.52757">
        <ele>1296</ele>
        <time>2010-09-30T09:05:25Z</time>
      </trkpt>
      <trkpt lat="45.34325" lon="4.52748">
        <ele>1296</ele>
        <time>2010-09-30T09:05:35Z</time>
      </trkpt>
      <trkpt lat="45.34316" lon="4.52742">
        <ele>1296</ele>
        <time>2010-09-30T09:05:44Z</time>
      </trkpt>
      <trkpt lat="45.34308" lon="4.52736">
        <ele>1296</ele>
        <time>2010-09-30T09:05:53Z</time>
      </trkpt>
      <trkpt lat="45.34299" lon="4.52732">
        <ele>1296</ele>
        <time>2010-09-30T09:06:02Z</time>
      </trkpt>
      <trkpt lat="45.3429" lon="4.52731">
        <ele>1296</ele>
        <time>2010-09-30T09:06:11Z</time>
      </trkpt>
      <trkpt lat="45.3428" lon="4.52729">
        <ele>1296</ele>
        <time>2010-09-30T09:06:21Z</time>
      </trkpt>
      <trkpt lat="45.3427" lon="4.52727">
        <ele>1296</ele>
        <time>2010-09-30T09:06:35Z</time>
      </trkpt>
      <trkpt lat="45.3426" lon="4.52729">
        <ele>1296</ele>
        <time>2010-09-30T09:07:20Z</time>
      </trkpt>
      <trkpt lat="45.34251" lon="4.52726">
        <ele>1296</ele>
        <time>2010-09-30T09:07:35Z</time>
      </trkpt>
      <trkpt lat="45.34242" lon="4.52722">
        <ele>1296</ele>
        <time>2010-09-30T09:07:43Z</time>
      </trkpt>
      <trkpt lat="45.34232" lon="4.52722">
        <ele>1296</ele>
        <time>2010-09-30T09:07:51Z</time>
      </trkpt>
      <trkpt lat="45.34223" lon="4.5272">
        <ele>1296</ele>
        <time>2010-09-30T09:08:04Z</time>
      </trkpt>
      <trkpt lat="45.34215" lon="4.52712">
        <ele>1296</ele>
        <time>2010-09-30T09:08:11Z</time>
      </trkpt>
      <trkpt lat="45.34205" lon="4.52707">
        <ele>1296</ele>
        <time>2010-09-30T09:08:21Z</time>
      </trkpt>
      <trkpt lat="45.34196" lon="4.52702">
        <ele>1302</ele>
        <time>2010-09-30T09:08:34Z</time>
      </trkpt>
      <trkpt lat="45.34187" lon="4.52702">
        <ele>1302</ele>
        <time>2010-09-30T09:08:40Z</time>
      </trkpt>
      <trkpt lat="45.34177" lon="4.52701">
        <ele>1295</ele>
        <time>2010-09-30T09:08:48Z</time>
      </trkpt>
      <trkpt lat="45.34166" lon="4.52702">
        <ele>1295</ele>
        <time>2010-09-30T09:08:59Z</time>
      </trkpt>
      <trkpt lat="45.34157" lon="4.527">
        <ele>1295</ele>
        <time>2010-09-30T09:09:10Z</time>
      </trkpt>
      <trkpt lat="45.34147" lon="4.52697">
        <ele>1288</ele>
        <time>2010-09-30T09:09:18Z</time>
      </trkpt>
      <trkpt lat="45.34137" lon="4.52696">
        <ele>1288</ele>
        <time>2010-09-30T09:09:29Z</time>
      </trkpt>
      <trkpt lat="45.34128" lon="4.52701">
        <ele>1288</ele>
        <time>2010-09-30T09:09:39Z</time>
      </trkpt>
      <trkpt lat="45.34117" lon="4.52703">
        <ele>1297</ele>
        <time>2010-09-30T09:09:48Z</time>
      </trkpt>
      <trkpt lat="45.34106" lon="4.52708">
        <ele>1304</ele>
        <time>2010-09-30T09:10:00Z</time>
      </trkpt>
      <trkpt lat="45.34096" lon="4.52711">
        <ele>1304</ele>
        <time>2010-09-30T09:10:10Z</time>
      </trkpt>
      <trkpt lat="45.34087" lon="4.52714">
        <ele>1298</ele>
        <time>2010-09-30T09:10:15Z</time>
      </trkpt>
      <trkpt lat="45.34078" lon="4.5272">
        <ele>1298</ele>
        <time>2010-09-30T09:10:29Z</time>
      </trkpt>
      <trkpt lat="45.34068" lon="4.52723">
        <ele>1298</ele>
        <time>2010-09-30T09:10:38Z</time>
      </trkpt>
      <trkpt lat="45.34058" lon="4.52727">
        <ele>1292</ele>
        <time>2010-09-30T09:10:46Z</time>
      </trkpt>
      <trkpt lat="45.3405" lon="4.52733">
        <ele>1292</ele>
        <time>2010-09-30T09:10:57Z</time>
      </trkpt>
      <trkpt lat="45.34041" lon="4.52737">
        <ele>1292</ele>
        <time>2010-09-30T09:11:06Z</time>
      </trkpt>
      <trkpt lat="45.34031" lon="4.52739">
        <ele>1292</ele>
        <time>2010-09-30T09:11:12Z</time>
      </trkpt>
      <trkpt lat="45.34022" lon="4.52741">
        <ele>1292</ele>
        <time>2010-09-30T09:11:18Z</time>
      </trkpt>
      <trkpt lat="45.34012" lon="4.52745">
        <ele>1292</ele>
        <time>2010-09-30T09:11:25Z</time>
      </trkpt>
      <trkpt lat="45.34002" lon="4.52752">
        <ele>1292</ele>
        <time>2010-09-30T09:11:37Z</time>
      </trkpt>
      <trkpt lat="45.33992" lon="4.52755">
        <ele>1301</ele>
        <time>2010-09-30T09:11:45Z</time>
      </trkpt>
      <trkpt lat="45.33983" lon="4.52756">
        <ele>1301</ele>
        <time>2010-09-30T09:11:55Z</time>
      </trkpt>
      <trkpt lat="45.33972" lon="4.52758">
        <ele>1301</ele>
        <time>2010-09-30T09:12:02Z</time>
      </trkpt>
      <trkpt lat="45.33964" lon="4.52763">
        <ele>1291</ele>
        <time>2010-09-30T09:12:11Z</time>
      </trkpt>
      <trkpt lat="45.33954" lon="4.52766">
        <ele>1291</ele>
        <time>2010-09-30T09:12:17Z</time>
      </trkpt>
      <trkpt lat="45.33943" lon="4.52768">
        <ele>1291</ele>
        <time>2010-09-30T09:12:27Z</time>
      </trkpt>
      <trkpt lat="45.33933" lon="4.52771">
        <ele>1291</ele>
        <time>2010-09-30T09:12:38Z</time>
      </trkpt>
      <trkpt lat="45.33923" lon="4.52767">
        <ele>1291</ele>
        <time>2010-09-30T09:12:46Z</time>
      </trkpt>
      <trkpt lat="45.33916" lon="4.52758">
        <ele>1285</ele>
        <time>2010-09-30T09:12:56Z</time>
      </trkpt>
      <trkpt lat="45.33905" lon="4.52751">
        <ele>1285</ele>
        <time>2010-09-30T09:13:15Z</time>
      </trkpt>
      <trkpt lat="45.33896" lon="4.52744">
        <ele>1291</ele>
        <time>2010-09-30T09:13:24Z</time>
      </trkpt>
      <trkpt lat="45.33889" lon="4.52735">
        <ele>1291</ele>
        <time>2010-09-30T09:13:29Z</time>
      </trkpt>
      <trkpt lat="45.33881" lon="4.52727">
        <ele>1291</ele>
        <time>2010-09-30T09:13:38Z</time>
      </trkpt>
      <trkpt lat="45.33879" lon="4.52714">
        <ele>1285</ele>
        <time>2010-09-30T09:13:51Z</time>
      </trkpt>
      <trkpt lat="45.33872" lon="4.52703">
        <ele>1285</ele>
        <time>2010-09-30T09:14:01Z</time>
      </trkpt>
      <trkpt lat="45.33869" lon="4.52691">
        <ele>1285</ele>
        <time>2010-09-30T09:14:13Z</time>
      </trkpt>
      <trkpt lat="45.33861" lon="4.52684">
        <ele>1285</ele>
        <time>2010-09-30T09:14:19Z</time>
      </trkpt>
      <trkpt lat="45.33855" lon="4.52673">
        <ele>1285</ele>
        <time>2010-09-30T09:14:26Z</time>
      </trkpt>
      <trkpt lat="45.33852" lon="4.5266">
        <ele>1277</ele>
        <time>2010-09-30T09:14:37Z</time>
      </trkpt>
      <trkpt lat="45.33843" lon="4.52657">
        <ele>1283</ele>
        <time>2010-09-30T09:14:50Z</time>
      </trkpt>
      <trkpt lat="45.33839" lon="4.52644">
        <ele>1283</ele>
        <time>2010-09-30T09:15:01Z</time>
      </trkpt>
      <trkpt lat="45.33843" lon="4.52631">
        <ele>1277</ele>
        <time>2010-09-30T09:15:17Z</time>
      </trkpt>
      <trkpt lat="45.33849" lon="4.52619">
        <ele>1277</ele>
        <time>2010-09-30T09:15:26Z</time>
      </trkpt>
      <trkpt lat="45.33851" lon="4.52606">
        <ele>1277</ele>
        <time>2010-09-30T09:15:36Z</time>
      </trkpt>
      <trkpt lat="45.33857" lon="4.52595">
        <ele>1277</ele>
        <time>2010-09-30T09:15:45Z</time>
      </trkpt>
      <trkpt lat="45.33867" lon="4.52591">
        <ele>1284</ele>
        <time>2010-09-30T09:15:59Z</time>
      </trkpt>
      <trkpt lat="45.33875" lon="4.52582">
        <ele>1290</ele>
        <time>2010-09-30T09:16:11Z</time>
      </trkpt>
      <trkpt lat="45.33881" lon="4.52572">
        <ele>1290</ele>
        <time>2010-09-30T09:16:22Z</time>
      </trkpt>
      <trkpt lat="45.33887" lon="4.52561">
        <ele>1290</ele>
        <time>2010-09-30T09:16:32Z</time>
      </trkpt>
      <trkpt lat="45.33893" lon="4.5255">
        <ele>1290</ele>
        <time>2010-09-30T09:16:39Z</time>
      </trkpt>
      <trkpt lat="45.33901" lon="4.52542">
        <ele>1290</ele>
        <time>2010-09-30T09:16:47Z</time>
      </trkpt>
      <trkpt lat="45.33907" lon="4.52532">
        <ele>1290</ele>
        <time>2010-09-30T09:16:56Z</time>
      </trkpt>
      <trkpt lat="45.3391" lon="4.52516">
        <ele>1290</ele>
        <time>2010-09-30T09:17:04Z</time>
      </trkpt>
      <trkpt lat="45.33914" lon="4.52504">
        <ele>1290</ele>
        <time>2010-09-30T09:17:17Z</time>
      </trkpt>
      <trkpt lat="45.33924" lon="4.52498">
        <ele>1290</ele>
        <time>2010-09-30T09:17:27Z</time>
      </trkpt>
      <trkpt lat="45.33934" lon="4.52492">
        <ele>1290</ele>
        <time>2010-09-30T09:17:40Z</time>
      </trkpt>
      <trkpt lat="45.33938" lon="4.5248">
        <ele>1290</ele>
        <time>2010-09-30T09:17:49Z</time>
      </trkpt>
      <trkpt lat="45.33947" lon="4.52474">
        <ele>1290</ele>
        <time>2010-09-30T09:17:54Z</time>
      </trkpt>
      <trkpt lat="45.33953" lon="4.5246">
        <ele>1290</ele>
        <time>2010-09-30T09:18:09Z</time>
      </trkpt>
      <trkpt lat="45.33962" lon="4.52455">
        <ele>1290</ele>
        <time>2010-09-30T09:18:18Z</time>
      </trkpt>
      <trkpt lat="45.33971" lon="4.52448">
        <ele>1290</ele>
        <time>2010-09-30T09:18:26Z</time>
      </trkpt>
      <trkpt lat="45.33978" lon="4.52437">
        <ele>1290</ele>
        <time>2010-09-30T09:18:33Z</time>
      </trkpt>
      <trkpt lat="45.33984" lon="4.52427">
        <ele>1283</ele>
        <time>2010-09-30T09:18:42Z</time>
      </trkpt>
      <trkpt lat="45.33993" lon="4.52418">
        <ele>1283</ele>
        <time>2010-09-30T09:18:56Z</time>
      </trkpt>
      <trkpt lat="45.34002" lon="4.52412">
        <ele>1283</ele>
        <time>2010-09-30T09:19:02Z</time>
      </trkpt>
      <trkpt lat="45.3401" lon="4.52403">
        <ele>1283</ele>
        <time>2010-09-30T09:19:12Z</time>
      </trkpt>
      <trkpt lat="45.34015" lon="4.52391">
        <ele>1283</ele>
        <time>2010-09-30T09:19:23Z</time>
      </trkpt>
      <trkpt lat="45.34023" lon="4.52383">
        <ele>1283</ele>
        <time>2010-09-30T09:19:35Z</time>
      </trkpt>
      <trkpt lat="45.34022" lon="4.52368">
        <ele>1292</ele>
        <time>2010-09-30T09:19:41Z</time>
      </trkpt>
      <trkpt lat="45.34031" lon="4.5236">
        <ele>1287</ele>
        <time>2010-09-30T09:19:52Z</time>
      </trkpt>
      <trkpt lat="45.3404" lon="4.52356">
        <ele>1287</ele>
        <time>2010-09-30T09:19:57Z</time>
      </trkpt>
      <trkpt lat="45.34049" lon="4.52349">
        <ele>1287</ele>
        <time>2010-09-30T09:20:05Z</time>
      </trkpt>
      <trkpt lat="45.34057" lon="4.52343">
        <ele>1287</ele>
        <time>2010-09-30T09:20:11Z</time>
      </trkpt>
      <trkpt lat="45.34062" lon="4.52331">
        <ele>1278</ele>
        <time>2010-09-30T09:20:19Z</time>
      </trkpt>
      <trkpt lat="45.34068" lon="4.52317">
        <ele>1278</ele>
        <time>2010-09-30T09:20:28Z</time>
      </trkpt>
      <trkpt lat="45.34074" lon="4.52304">
        <ele>1270</ele>
        <time>2010-09-30T09:20:35Z</time>
      </trkpt>
      <trkpt lat="45.34077" lon="4.5229">
        <ele>1279</ele>
        <time>2010-09-30T09:20:48Z</time>
      </trkpt>
      <trkpt lat="45.34085" lon="4.52282">
        <ele>1279</ele>
        <time>2010-09-30T09:20:58Z</time>
      </trkpt>
      <trkpt lat="45.3409" lon="4.5227">
        <ele>1279</ele>
        <time>2010-09-30T09:21:08Z</time>
      </trkpt>
      <trkpt lat="45.34092" lon="4.52257">
        <ele>1279</ele>
        <time>2010-09-30T09:21:13Z</time>
      </trkpt>
      <trkpt lat="45.34096" lon="4.52245">
        <ele>1273</ele>
        <time>2010-09-30T09:21:21Z</time>
      </trkpt>
      <trkpt lat="45.34105" lon="4.52238">
        <ele>1273</ele>
        <time>2010-09-30T09:21:27Z</time>
      </trkpt>
      <trkpt lat="45.34114" lon="4.52231">
        <ele>1282</ele>
        <time>2010-09-30T09:21:36Z</time>
      </trkpt>
      <trkpt lat="45.34121" lon="4.52217">
        <ele>1288</ele>
        <time>2010-09-30T09:21:48Z</time>
      </trkpt>
      <trkpt lat="45.34127" lon="4.52207">
        <ele>1288</ele>
        <time>2010-09-30T09:21:56Z</time>
      </trkpt>
      <trkpt lat="45.34135" lon="4.52198">
        <ele>1302</ele>
        <time>2010-09-30T09:22:09Z</time>
      </trkpt>
      <trkpt lat="45.3414" lon="4.52188">
        <ele>1302</ele>
        <time>2010-09-30T09:22:18Z</time>
      </trkpt>
      <trkpt lat="45.34147" lon="4.52176">
        <ele>1293</ele>
        <time>2010-09-30T09:22:26Z</time>
      </trkpt>
      <trkpt lat="45.34151" lon="4.52163">
        <ele>1285</ele>
        <time>2010-09-30T09:22:30Z</time>
      </trkpt>
      <trkpt lat="45.34157" lon="4.52153">
        <ele>1276</ele>
        <time>2010-09-30T09:22:37Z</time>
      </trkpt>
      <trkpt lat="45.34161" lon="4.52139">
        <ele>1276</ele>
        <time>2010-09-30T09:22:45Z</time>
      </trkpt>
      <trkpt lat="45.34166" lon="4.52128">
        <ele>1268</ele>
        <time>2010-09-30T09:22:53Z</time>
      </trkpt>
      <trkpt lat="45.34162" lon="4.52116">
        <ele>1268</ele>
        <time>2010-09-30T09:23:04Z</time>
      </trkpt>
      <trkpt lat="45.34163" lon="4.52101">
        <ele>1268</ele>
        <time>2010-09-30T09:23:12Z</time>
      </trkpt>
      <trkpt lat="45.34168" lon="4.52091">
        <ele>1268</ele>
        <time>2010-09-30T09:23:22Z</time>
      </trkpt>
      <trkpt lat="45.34171" lon="4.52076">
        <ele>1268</ele>
        <time>2010-09-30T09:23:33Z</time>
      </trkpt>
      <trkpt lat="45.34176" lon="4.52065">
        <ele>1274</ele>
        <time>2010-09-30T09:23:44Z</time>
      </trkpt>
      <trkpt lat="45.3418" lon="4.52053">
        <ele>1274</ele>
        <time>2010-09-30T09:23:54Z</time>
      </trkpt>
      <trkpt lat="45.34186" lon="4.52041">
        <ele>1274</ele>
        <time>2010-09-30T09:24:02Z</time>
      </trkpt>
      <trkpt lat="45.34187" lon="4.52028">
        <ele>1274</ele>
        <time>2010-09-30T09:24:09Z</time>
      </trkpt>
      <trkpt lat="45.3419" lon="4.52015">
        <ele>1274</ele>
        <time>2010-09-30T09:24:18Z</time>
      </trkpt>
      <trkpt lat="45.34195" lon="4.52003">
        <ele>1274</ele>
        <time>2010-09-30T09:24:24Z</time>
      </trkpt>
      <trkpt lat="45.34199" lon="4.51986">
        <ele>1274</ele>
        <time>2010-09-30T09:24:32Z</time>
      </trkpt>
      <trkpt lat="45.34204" lon="4.51974">
        <ele>1282</ele>
        <time>2010-09-30T09:24:45Z</time>
      </trkpt>
      <trkpt lat="45.34211" lon="4.51964">
        <ele>1282</ele>
        <time>2010-09-30T09:24:49Z</time>
      </trkpt>
      <trkpt lat="45.3421" lon="4.51951">
        <ele>1282</ele>
        <time>2010-09-30T09:25:01Z</time>
      </trkpt>
      <trkpt lat="45.34212" lon="4.51933">
        <ele>1282</ele>
        <time>2010-09-30T09:25:08Z</time>
      </trkpt>
      <trkpt lat="45.34215" lon="4.51918">
        <ele>1282</ele>
        <time>2010-09-30T09:25:15Z</time>
      </trkpt>
      <trkpt lat="45.34216" lon="4.51904">
        <ele>1282</ele>
        <time>2010-09-30T09:25:29Z</time>
      </trkpt>
      <trkpt lat="45.3422" lon="4.5189">
        <ele>1282</ele>
        <time>2010-09-30T09:25:45Z</time>
      </trkpt>
      <trkpt lat="45.34225" lon="4.51876">
        <ele>1289</ele>
        <time>2010-09-30T09:25:54Z</time>
      </trkpt>
      <trkpt lat="45.3422" lon="4.51865">
        <ele>1289</ele>
        <time>2010-09-30T09:26:00Z</time>
      </trkpt>
      <trkpt lat="45.34222" lon="4.51853">
        <ele>1289</ele>
        <time>2010-09-30T09:26:06Z</time>
      </trkpt>
      <trkpt lat="45.34226" lon="4.51839">
        <ele>1296</ele>
        <time>2010-09-30T09:26:15Z</time>
      </trkpt>
      <trkpt lat="45.34231" lon="4.51827">
        <ele>1296</ele>
        <time>2010-09-30T09:26:24Z</time>
      </trkpt>
      <trkpt lat="45.3424" lon="4.51818">
        <ele>1288</ele>
        <time>2010-09-30T09:26:32Z</time>
      </trkpt>
      <trkpt lat="45.34244" lon="4.51804">
        <ele>1278</ele>
        <time>2010-09-30T09:26:44Z</time>
      </trkpt>
      <trkpt lat="45.34244" lon="4.51791">
        <ele>1278</ele>
        <time>2010-09-30T09:26:51Z</time>
      </trkpt>
      <trkpt lat="45.34235" lon="4.51783">
        <ele>1291</ele>
        <time>2010-09-30T09:29:31Z</time>
      </trkpt>
      <trkpt lat="45.34231" lon="4.51795">
        <ele>1300</ele>
        <time>2010-09-30T09:30:06Z</time>
      </trkpt>
      <trkpt lat="45.3424" lon="4.51793">
        <ele>1300</ele>
        <time>2010-09-30T09:30:17Z</time>
      </trkpt>
      <trkpt lat="45.34232" lon="4.51799">
        <ele>1311</ele>
        <time>2010-09-30T09:30:36Z</time>
      </trkpt>
      <trkpt lat="45.34223" lon="4.51794">
        <ele>1316</ele>
        <time>2010-09-30T09:30:51Z</time>
      </trkpt>
      <trkpt lat="45.34231" lon="4.51787">
        <ele>1303</ele>
        <time>2010-09-30T09:31:23Z</time>
      </trkpt>
      <trkpt lat="45.34239" lon="4.51795">
        <ele>1309</ele>
        <time>2010-09-30T09:31:34Z</time>
      </trkpt>
      <trkpt lat="45.34246" lon="4.51805">
        <ele>1309</ele>
        <time>2010-09-30T09:31:45Z</time>
      </trkpt>
      <trkpt lat="45.34254" lon="4.51814">
        <ele>1309</ele>
        <time>2010-09-30T09:32:04Z</time>
      </trkpt>
      <trkpt lat="45.34264" lon="4.51819">
        <ele>1309</ele>
        <time>2010-09-30T09:32:11Z</time>
      </trkpt>
      <trkpt lat="45.34273" lon="4.51825">
        <ele>1309</ele>
        <time>2010-09-30T09:32:20Z</time>
      </trkpt>
      <trkpt lat="45.3428" lon="4.51834">
        <ele>1301</ele>
        <time>2010-09-30T09:32:31Z</time>
      </trkpt>
      <trkpt lat="45.34289" lon="4.51837">
        <ele>1293</ele>
        <time>2010-09-30T09:32:36Z</time>
      </trkpt>
      <trkpt lat="45.34297" lon="4.51846">
        <ele>1293</ele>
        <time>2010-09-30T09:32:46Z</time>
      </trkpt>
      <trkpt lat="45.34303" lon="4.51858">
        <ele>1304</ele>
        <time>2010-09-30T09:33:03Z</time>
      </trkpt>
      <trkpt lat="45.34315" lon="4.51866">
        <ele>1311</ele>
        <time>2010-09-30T09:33:13Z</time>
      </trkpt>
      <trkpt lat="45.34324" lon="4.51872">
        <ele>1311</ele>
        <time>2010-09-30T09:33:17Z</time>
      </trkpt>
      <trkpt lat="45.3433" lon="4.51882">
        <ele>1311</ele>
        <time>2010-09-30T09:33:29Z</time>
      </trkpt>
      <trkpt lat="45.34334" lon="4.51895">
        <ele>1318</ele>
        <time>2010-09-30T09:33:44Z</time>
      </trkpt>
      <trkpt lat="45.34332" lon="4.51908">
        <ele>1324</ele>
        <time>2010-09-30T09:33:56Z</time>
      </trkpt>
      <trkpt lat="45.34334" lon="4.51922">
        <ele>1324</ele>
        <time>2010-09-30T09:34:04Z</time>
      </trkpt>
      <trkpt lat="45.34341" lon="4.51932">
        <ele>1324</ele>
        <time>2010-09-30T09:34:17Z</time>
      </trkpt>
      <trkpt lat="45.34349" lon="4.5194">
        <ele>1324</ele>
        <time>2010-09-30T09:34:24Z</time>
      </trkpt>
      <trkpt lat="45.34355" lon="4.51952">
        <ele>1324</ele>
        <time>2010-09-30T09:34:31Z</time>
      </trkpt>
      <trkpt lat="45.34351" lon="4.51965">
        <ele>1324</ele>
        <time>2010-09-30T09:34:45Z</time>
      </trkpt>
      <trkpt lat="45.34342" lon="4.51974">
        <ele>1324</ele>
        <time>2010-09-30T09:34:53Z</time>
      </trkpt>
      <trkpt lat="45.34346" lon="4.51987">
        <ele>1324</ele>
        <time>2010-09-30T09:35:03Z</time>
      </trkpt>
      <trkpt lat="45.34337" lon="4.51995">
        <ele>1330</ele>
        <time>2010-09-30T09:35:10Z</time>
      </trkpt>
      <trkpt lat="45.34346" lon="4.52003">
        <ele>1330</ele>
        <time>2010-09-30T09:35:15Z</time>
      </trkpt>
      <trkpt lat="45.34354" lon="4.52009">
        <ele>1330</ele>
        <time>2010-09-30T09:35:19Z</time>
      </trkpt>
      <trkpt lat="45.34362" lon="4.52016">
        <ele>1324</ele>
        <time>2010-09-30T09:35:23Z</time>
      </trkpt>
      <trkpt lat="45.34368" lon="4.52027">
        <ele>1315</ele>
        <time>2010-09-30T09:35:32Z</time>
      </trkpt>
      <trkpt lat="45.34366" lon="4.52041">
        <ele>1315</ele>
        <time>2010-09-30T09:35:42Z</time>
      </trkpt>
      <trkpt lat="45.34368" lon="4.52054">
        <ele>1322</ele>
        <time>2010-09-30T09:35:51Z</time>
      </trkpt>
      <trkpt lat="45.34374" lon="4.52065">
        <ele>1322</ele>
        <time>2010-09-30T09:36:04Z</time>
      </trkpt>
      <trkpt lat="45.34381" lon="4.52075">
        <ele>1322</ele>
        <time>2010-09-30T09:36:18Z</time>
      </trkpt>
      <trkpt lat="45.34382" lon="4.52089">
        <ele>1329</ele>
        <time>2010-09-30T09:36:29Z</time>
      </trkpt>
      <trkpt lat="45.34391" lon="4.52096">
        <ele>1329</ele>
        <time>2010-09-30T09:36:39Z</time>
      </trkpt>
      <trkpt lat="45.34388" lon="4.5211">
        <ele>1335</ele>
        <time>2010-09-30T09:36:49Z</time>
      </trkpt>
      <trkpt lat="45.34395" lon="4.5212">
        <ele>1340</ele>
        <time>2010-09-30T09:37:00Z</time>
      </trkpt>
      <trkpt lat="45.34401" lon="4.52131">
        <ele>1346</ele>
        <time>2010-09-30T09:37:08Z</time>
      </trkpt>
      <trkpt lat="45.34396" lon="4.52143">
        <ele>1346</ele>
        <time>2010-09-30T09:37:18Z</time>
      </trkpt>
      <trkpt lat="45.34403" lon="4.52152">
        <ele>1336</ele>
        <time>2010-09-30T09:37:33Z</time>
      </trkpt>
      <trkpt lat="45.3441" lon="4.52163">
        <ele>1344</ele>
        <time>2010-09-30T09:37:40Z</time>
      </trkpt>
      <trkpt lat="45.34418" lon="4.52166">
        <ele>1344</ele>
        <time>2010-09-30T09:37:44Z</time>
      </trkpt>
      <trkpt lat="45.34427" lon="4.52173">
        <ele>1344</ele>
        <time>2010-09-30T09:37:49Z</time>
      </trkpt>
      <trkpt lat="45.34431" lon="4.52185">
        <ele>1344</ele>
        <time>2010-09-30T09:37:56Z</time>
      </trkpt>
      <trkpt lat="45.34439" lon="4.52196">
        <ele>1344</ele>
        <time>2010-09-30T09:38:03Z</time>
      </trkpt>
      <trkpt lat="45.34443" lon="4.52207">
        <ele>1344</ele>
        <time>2010-09-30T09:38:12Z</time>
      </trkpt>
      <trkpt lat="45.34453" lon="4.52212">
        <ele>1328</ele>
        <time>2010-09-30T09:38:21Z</time>
      </trkpt>
      <trkpt lat="45.3446" lon="4.52221">
        <ele>1341</ele>
        <time>2010-09-30T09:38:35Z</time>
      </trkpt>
      <trkpt lat="45.34459" lon="4.52234">
        <ele>1351</ele>
        <time>2010-09-30T09:38:49Z</time>
      </trkpt>
      <trkpt lat="45.34466" lon="4.52244">
        <ele>1341</ele>
        <time>2010-09-30T09:38:58Z</time>
      </trkpt>
      <trkpt lat="45.3447" lon="4.52257">
        <ele>1341</ele>
        <time>2010-09-30T09:39:05Z</time>
      </trkpt>
      <trkpt lat="45.34478" lon="4.52263">
        <ele>1341</ele>
        <time>2010-09-30T09:39:10Z</time>
      </trkpt>
      <trkpt lat="45.34481" lon="4.52278">
        <ele>1341</ele>
        <time>2010-09-30T09:39:20Z</time>
      </trkpt>
      <trkpt lat="45.34479" lon="4.52291">
        <ele>1341</ele>
        <time>2010-09-30T09:39:27Z</time>
      </trkpt>
      <trkpt lat="45.34482" lon="4.52304">
        <ele>1335</ele>
        <time>2010-09-30T09:39:38Z</time>
      </trkpt>
      <trkpt lat="45.34491" lon="4.52316">
        <ele>1335</ele>
        <time>2010-09-30T09:39:47Z</time>
      </trkpt>
      <trkpt lat="45.34499" lon="4.52324">
        <ele>1326</ele>
        <time>2010-09-30T09:39:54Z</time>
      </trkpt>
      <trkpt lat="45.34498" lon="4.52338">
        <ele>1326</ele>
        <time>2010-09-30T09:40:01Z</time>
      </trkpt>
      <trkpt lat="45.34503" lon="4.5235">
        <ele>1326</ele>
        <time>2010-09-30T09:40:10Z</time>
      </trkpt>
      <trkpt lat="45.34512" lon="4.52356">
        <ele>1318</ele>
        <time>2010-09-30T09:40:15Z</time>
      </trkpt>
      <trkpt lat="45.34516" lon="4.52369">
        <ele>1318</ele>
        <time>2010-09-30T09:40:25Z</time>
      </trkpt>
      <trkpt lat="45.34514" lon="4.52383">
        <ele>1318</ele>
        <time>2010-09-30T09:40:36Z</time>
      </trkpt>
      <trkpt lat="45.34508" lon="4.52393">
        <ele>1324</ele>
        <time>2010-09-30T09:40:42Z</time>
      </trkpt>
      <trkpt lat="45.34505" lon="4.52405">
        <ele>1324</ele>
        <time>2010-09-30T09:40:51Z</time>
      </trkpt>
      <trkpt lat="45.34513" lon="4.52415">
        <ele>1330</ele>
        <time>2010-09-30T09:40:58Z</time>
      </trkpt>
      <trkpt lat="45.34514" lon="4.52428">
        <ele>1323</ele>
        <time>2010-09-30T09:41:07Z</time>
      </trkpt>
      <trkpt lat="45.34518" lon="4.5244">
        <ele>1329</ele>
        <time>2010-09-30T09:41:17Z</time>
      </trkpt>
      <trkpt lat="45.34522" lon="4.52454">
        <ele>1329</ele>
        <time>2010-09-30T09:41:26Z</time>
      </trkpt>
      <trkpt lat="45.34532" lon="4.52458">
        <ele>1323</ele>
        <time>2010-09-30T09:41:30Z</time>
      </trkpt>
      <trkpt lat="45.34538" lon="4.5247">
        <ele>1311</ele>
        <time>2010-09-30T09:41:41Z</time>
      </trkpt>
      <trkpt lat="45.34546" lon="4.5248">
        <ele>1311</ele>
        <time>2010-09-30T09:41:50Z</time>
      </trkpt>
      <trkpt lat="45.34553" lon="4.52491">
        <ele>1301</ele>
        <time>2010-09-30T09:42:00Z</time>
      </trkpt>
      <trkpt lat="45.34562" lon="4.52501">
        <ele>1306</ele>
        <time>2010-09-30T09:42:10Z</time>
      </trkpt>
      <trkpt lat="45.34566" lon="4.52514">
        <ele>1316</ele>
        <time>2010-09-30T09:42:18Z</time>
      </trkpt>
      <trkpt lat="45.34565" lon="4.52527">
        <ele>1316</ele>
        <time>2010-09-30T09:42:30Z</time>
      </trkpt>
      <trkpt lat="45.34573" lon="4.52536">
        <ele>1304</ele>
        <time>2010-09-30T09:42:43Z</time>
      </trkpt>
      <trkpt lat="45.34582" lon="4.52544">
        <ele>1304</ele>
        <time>2010-09-30T09:42:53Z</time>
      </trkpt>
      <trkpt lat="45.34591" lon="4.52549">
        <ele>1298</ele>
        <time>2010-09-30T09:43:02Z</time>
      </trkpt>
      <trkpt lat="45.346" lon="4.52552">
        <ele>1298</ele>
        <time>2010-09-30T09:43:12Z</time>
      </trkpt>
      <trkpt lat="45.3461" lon="4.52555">
        <ele>1298</ele>
        <time>2010-09-30T09:43:22Z</time>
      </trkpt>
      <trkpt lat="45.3462" lon="4.52557">
        <ele>1298</ele>
        <time>2010-09-30T09:43:35Z</time>
      </trkpt>
      <trkpt lat="45.34629" lon="4.52561">
        <ele>1298</ele>
        <time>2010-09-30T09:43:45Z</time>
      </trkpt>
      <trkpt lat="45.34639" lon="4.5256">
        <ele>1298</ele>
        <time>2010-09-30T09:43:55Z</time>
      </trkpt>
      <trkpt lat="45.34648" lon="4.52559">
        <ele>1298</ele>
        <time>2010-09-30T09:44:04Z</time>
      </trkpt>
      <trkpt lat="45.34658" lon="4.5256">
        <ele>1290</ele>
        <time>2010-09-30T09:44:15Z</time>
      </trkpt>
      <trkpt lat="45.34667" lon="4.52561">
        <ele>1297</ele>
        <time>2010-09-30T09:44:32Z</time>
      </trkpt>
      <trkpt lat="45.34676" lon="4.52568">
        <ele>1307</ele>
        <time>2010-09-30T09:44:42Z</time>
      </trkpt>
      <trkpt lat="45.34686" lon="4.52573">
        <ele>1307</ele>
        <time>2010-09-30T09:44:47Z</time>
      </trkpt>
      <trkpt lat="45.34695" lon="4.52577">
        <ele>1307</ele>
        <time>2010-09-30T09:45:04Z</time>
      </trkpt>
      <trkpt lat="45.34702" lon="4.52586">
        <ele>1307</ele>
        <time>2010-09-30T09:45:12Z</time>
      </trkpt>
      <trkpt lat="45.34711" lon="4.52595">
        <ele>1302</ele>
        <time>2010-09-30T09:45:22Z</time>
      </trkpt>
      <trkpt lat="45.34721" lon="4.52594">
        <ele>1292</ele>
        <time>2010-09-30T09:45:26Z</time>
      </trkpt>
      <trkpt lat="45.34728" lon="4.52602">
        <ele>1286</ele>
        <time>2010-09-30T09:45:33Z</time>
      </trkpt>
      <trkpt lat="45.34735" lon="4.52613">
        <ele>1286</ele>
        <time>2010-09-30T09:45:43Z</time>
      </trkpt>
      <trkpt lat="45.34743" lon="4.52619">
        <ele>1286</ele>
        <time>2010-09-30T09:45:52Z</time>
      </trkpt>
      <trkpt lat="45.34733" lon="4.52623">
        <ele>1306</ele>
        <time>2010-09-30T09:46:34Z</time>
      </trkpt>
      <trkpt lat="45.34743" lon="4.52629">
        <ele>1290</ele>
        <time>2010-09-30T09:47:11Z</time>
      </trkpt>
      <trkpt lat="45.34753" lon="4.52627">
        <ele>1278</ele>
        <time>2010-09-30T09:49:19Z</time>
      </trkpt>
      <trkpt lat="45.34757" lon="4.52613">
        <ele>1278</ele>
        <time>2010-09-30T09:49:33Z</time>
      </trkpt>
      <trkpt lat="45.34762" lon="4.52599">
        <ele>1278</ele>
        <time>2010-09-30T09:49:41Z</time>
      </trkpt>
      <trkpt lat="45.3477" lon="4.52589">
        <ele>1278</ele>
        <time>2010-09-30T09:49:50Z</time>
      </trkpt>
      <trkpt lat="45.34771" lon="4.52576">
        <ele>1278</ele>
        <time>2010-09-30T09:50:01Z</time>
      </trkpt>
      <trkpt lat="45.34776" lon="4.52564">
        <ele>1278</ele>
        <time>2010-09-30T09:50:10Z</time>
      </trkpt>
      <trkpt lat="45.34774" lon="4.52546">
        <ele>1292</ele>
        <time>2010-09-30T09:50:25Z</time>
      </trkpt>
      <trkpt lat="45.34772" lon="4.52532">
        <ele>1298</ele>
        <time>2010-09-30T09:50:34Z</time>
      </trkpt>
      <trkpt lat="45.34773" lon="4.52516">
        <ele>1306</ele>
        <time>2010-09-30T09:50:45Z</time>
      </trkpt>
      <trkpt lat="45.34777" lon="4.52504">
        <ele>1306</ele>
        <time>2010-09-30T09:50:55Z</time>
      </trkpt>
      <trkpt lat="45.34786" lon="4.52499">
        <ele>1306</ele>
        <time>2010-09-30T09:51:04Z</time>
      </trkpt>
      <trkpt lat="45.34793" lon="4.5249">
        <ele>1297</ele>
        <time>2010-09-30T09:51:10Z</time>
      </trkpt>
      <trkpt lat="45.34801" lon="4.52478">
        <ele>1286</ele>
        <time>2010-09-30T09:51:19Z</time>
      </trkpt>
      <trkpt lat="45.34807" lon="4.52465">
        <ele>1286</ele>
        <time>2010-09-30T09:51:27Z</time>
      </trkpt>
      <trkpt lat="45.34807" lon="4.52451">
        <ele>1297</ele>
        <time>2010-09-30T09:51:40Z</time>
      </trkpt>
      <trkpt lat="45.34814" lon="4.52441">
        <ele>1297</ele>
        <time>2010-09-30T09:51:48Z</time>
      </trkpt>
      <trkpt lat="45.34821" lon="4.5243">
        <ele>1291</ele>
        <time>2010-09-30T09:52:00Z</time>
      </trkpt>
      <trkpt lat="45.34825" lon="4.52418">
        <ele>1300</ele>
        <time>2010-09-30T09:52:13Z</time>
      </trkpt>
      <trkpt lat="45.34833" lon="4.52411">
        <ele>1300</ele>
        <time>2010-09-30T09:52:21Z</time>
      </trkpt>
      <trkpt lat="45.34837" lon="4.524">
        <ele>1300</ele>
        <time>2010-09-30T09:52:30Z</time>
      </trkpt>
      <trkpt lat="45.34844" lon="4.52389">
        <ele>1310</ele>
        <time>2010-09-30T09:52:44Z</time>
      </trkpt>
      <trkpt lat="45.34852" lon="4.52381">
        <ele>1299</ele>
        <time>2010-09-30T09:52:50Z</time>
      </trkpt>
      <trkpt lat="45.34862" lon="4.52375">
        <ele>1289</ele>
        <time>2010-09-30T09:52:54Z</time>
      </trkpt>
      <trkpt lat="45.34873" lon="4.52367">
        <ele>1275</ele>
        <time>2010-09-30T09:53:00Z</time>
      </trkpt>
      <trkpt lat="45.34883" lon="4.52362">
        <ele>1262</ele>
        <time>2010-09-30T09:53:05Z</time>
      </trkpt>
      <trkpt lat="45.34891" lon="4.52356">
        <ele>1262</ele>
        <time>2010-09-30T09:53:13Z</time>
      </trkpt>
      <trkpt lat="45.34901" lon="4.52358">
        <ele>1278</ele>
        <time>2010-09-30T09:53:25Z</time>
      </trkpt>
      <trkpt lat="45.34909" lon="4.52352">
        <ele>1278</ele>
        <time>2010-09-30T09:53:33Z</time>
      </trkpt>
      <trkpt lat="45.34919" lon="4.52348">
        <ele>1278</ele>
        <time>2010-09-30T09:53:43Z</time>
      </trkpt>
      <trkpt lat="45.34925" lon="4.52336">
        <ele>1278</ele>
        <time>2010-09-30T09:53:52Z</time>
      </trkpt>
      <trkpt lat="45.34937" lon="4.52335">
        <ele>1283</ele>
        <time>2010-09-30T09:54:06Z</time>
      </trkpt>
      <trkpt lat="45.34946" lon="4.52331">
        <ele>1291</ele>
        <time>2010-09-30T09:54:18Z</time>
      </trkpt>
      <trkpt lat="45.34954" lon="4.52322">
        <ele>1298</ele>
        <time>2010-09-30T09:54:33Z</time>
      </trkpt>
      <trkpt lat="45.34967" lon="4.52318">
        <ele>1298</ele>
        <time>2010-09-30T09:54:39Z</time>
      </trkpt>
      <trkpt lat="45.34974" lon="4.52309">
        <ele>1305</ele>
        <time>2010-09-30T09:54:51Z</time>
      </trkpt>
      <trkpt lat="45.34984" lon="4.523">
        <ele>1294</ele>
        <time>2010-09-30T09:54:57Z</time>
      </trkpt>
      <trkpt lat="45.34992" lon="4.52292">
        <ele>1283</ele>
        <time>2010-09-30T09:55:04Z</time>
      </trkpt>
      <trkpt lat="45.35003" lon="4.52287">
        <ele>1283</ele>
        <time>2010-09-30T09:55:10Z</time>
      </trkpt>
      <trkpt lat="45.35013" lon="4.52293">
        <ele>1283</ele>
        <time>2010-09-30T09:55:20Z</time>
      </trkpt>
      <trkpt lat="45.35022" lon="4.52287">
        <ele>1283</ele>
        <time>2010-09-30T09:55:27Z</time>
      </trkpt>
      <trkpt lat="45.35033" lon="4.52286">
        <ele>1283</ele>
        <time>2010-09-30T09:55:34Z</time>
      </trkpt>
      <trkpt lat="45.35041" lon="4.52292">
        <ele>1283</ele>
        <time>2010-09-30T09:55:45Z</time>
      </trkpt>
      <trkpt lat="45.35051" lon="4.52295">
        <ele>1283</ele>
        <time>2010-09-30T09:55:55Z</time>
      </trkpt>
      <trkpt lat="45.3506" lon="4.52298">
        <ele>1283</ele>
        <time>2010-09-30T09:56:04Z</time>
      </trkpt>
      <trkpt lat="45.3507" lon="4.52298">
        <ele>1283</ele>
        <time>2010-09-30T09:56:13Z</time>
      </trkpt>
      <trkpt lat="45.35079" lon="4.52293">
        <ele>1277</ele>
        <time>2010-09-30T09:56:20Z</time>
      </trkpt>
      <trkpt lat="45.35092" lon="4.52287">
        <ele>1272</ele>
        <time>2010-09-30T09:56:28Z</time>
      </trkpt>
      <trkpt lat="45.35102" lon="4.52288">
        <ele>1285</ele>
        <time>2010-09-30T09:56:42Z</time>
      </trkpt>
      <trkpt lat="45.35112" lon="4.5229">
        <ele>1285</ele>
        <time>2010-09-30T09:56:50Z</time>
      </trkpt>
      <trkpt lat="45.35122" lon="4.5229">
        <ele>1285</ele>
        <time>2010-09-30T09:56:56Z</time>
      </trkpt>
      <trkpt lat="45.35131" lon="4.52299">
        <ele>1299</ele>
        <time>2010-09-30T09:57:05Z</time>
      </trkpt>
      <trkpt lat="45.35143" lon="4.523">
        <ele>1299</ele>
        <time>2010-09-30T09:57:20Z</time>
      </trkpt>
      <trkpt lat="45.3515" lon="4.52309">
        <ele>1288</ele>
        <time>2010-09-30T09:57:29Z</time>
      </trkpt>
      <trkpt lat="45.3516" lon="4.52313">
        <ele>1288</ele>
        <time>2010-09-30T09:57:37Z</time>
      </trkpt>
      <trkpt lat="45.35172" lon="4.52312">
        <ele>1281</ele>
        <time>2010-09-30T09:57:42Z</time>
      </trkpt>
      <trkpt lat="45.35187" lon="4.52313">
        <ele>1274</ele>
        <time>2010-09-30T09:57:51Z</time>
      </trkpt>
      <trkpt lat="45.35198" lon="4.52308">
        <ele>1267</ele>
        <time>2010-09-30T09:58:01Z</time>
      </trkpt>
      <trkpt lat="45.35208" lon="4.52305">
        <ele>1267</ele>
        <time>2010-09-30T09:58:13Z</time>
      </trkpt>
      <trkpt lat="45.35215" lon="4.52314">
        <ele>1286</ele>
        <time>2010-09-30T09:58:25Z</time>
      </trkpt>
      <trkpt lat="45.35225" lon="4.52317">
        <ele>1293</ele>
        <time>2010-09-30T09:58:35Z</time>
      </trkpt>
      <trkpt lat="45.35234" lon="4.52313">
        <ele>1293</ele>
        <time>2010-09-30T09:58:41Z</time>
      </trkpt>
      <trkpt lat="45.35244" lon="4.52317">
        <ele>1293</ele>
        <time>2010-09-30T09:58:50Z</time>
      </trkpt>
      <trkpt lat="45.35253" lon="4.52321">
        <ele>1293</ele>
        <time>2010-09-30T09:59:00Z</time>
      </trkpt>
      <trkpt lat="45.35263" lon="4.52323">
        <ele>1284</ele>
        <time>2010-09-30T09:59:07Z</time>
      </trkpt>
      <trkpt lat="45.35273" lon="4.52323">
        <ele>1279</ele>
        <time>2010-09-30T09:59:13Z</time>
      </trkpt>
      <trkpt lat="45.35282" lon="4.52331">
        <ele>1279</ele>
        <time>2010-09-30T09:59:21Z</time>
      </trkpt>
      <trkpt lat="45.35293" lon="4.52332">
        <ele>1287</ele>
        <time>2010-09-30T09:59:28Z</time>
      </trkpt>
      <trkpt lat="45.35303" lon="4.52334">
        <ele>1287</ele>
        <time>2010-09-30T09:59:42Z</time>
      </trkpt>
      <trkpt lat="45.35313" lon="4.52336">
        <ele>1298</ele>
        <time>2010-09-30T09:59:52Z</time>
      </trkpt>
      <trkpt lat="45.3532" lon="4.52345">
        <ele>1298</ele>
        <time>2010-09-30T09:59:59Z</time>
      </trkpt>
      <trkpt lat="45.35329" lon="4.52341">
        <ele>1298</ele>
        <time>2010-09-30T10:00:08Z</time>
      </trkpt>
      <trkpt lat="45.35339" lon="4.52346">
        <ele>1306</ele>
        <time>2010-09-30T10:00:23Z</time>
      </trkpt>
      <trkpt lat="45.35348" lon="4.52349">
        <ele>1306</ele>
        <time>2010-09-30T10:00:31Z</time>
      </trkpt>
      <trkpt lat="45.35356" lon="4.5234">
        <ele>1306</ele>
        <time>2010-09-30T10:00:37Z</time>
      </trkpt>
      <trkpt lat="45.35364" lon="4.52349">
        <ele>1306</ele>
        <time>2010-09-30T10:00:46Z</time>
      </trkpt>
      <trkpt lat="45.35373" lon="4.52352">
        <ele>1295</ele>
        <time>2010-09-30T10:00:53Z</time>
      </trkpt>
      <trkpt lat="45.35384" lon="4.5235">
        <ele>1295</ele>
        <time>2010-09-30T10:01:00Z</time>
      </trkpt>
      <trkpt lat="45.35394" lon="4.52352">
        <ele>1287</ele>
        <time>2010-09-30T10:01:03Z</time>
      </trkpt>
      <trkpt lat="45.35404" lon="4.52354">
        <ele>1287</ele>
        <time>2010-09-30T10:01:11Z</time>
      </trkpt>
      <trkpt lat="45.3541" lon="4.52341">
        <ele>1287</ele>
        <time>2010-09-30T10:01:20Z</time>
      </trkpt>
      <trkpt lat="45.35417" lon="4.52351">
        <ele>1297</ele>
        <time>2010-09-30T10:01:27Z</time>
      </trkpt>
      <trkpt lat="45.35428" lon="4.52357">
        <ele>1297</ele>
        <time>2010-09-30T10:01:38Z</time>
      </trkpt>
      <trkpt lat="45.35438" lon="4.52355">
        <ele>1297</ele>
        <time>2010-09-30T10:01:48Z</time>
      </trkpt>
      <trkpt lat="45.35448" lon="4.52359">
        <ele>1289</ele>
        <time>2010-09-30T10:01:57Z</time>
      </trkpt>
      <trkpt lat="45.35457" lon="4.52366">
        <ele>1289</ele>
        <time>2010-09-30T10:02:07Z</time>
      </trkpt>
      <trkpt lat="45.35467" lon="4.52368">
        <ele>1298</ele>
        <time>2010-09-30T10:02:21Z</time>
      </trkpt>
      <trkpt lat="45.35476" lon="4.52375">
        <ele>1298</ele>
        <time>2010-09-30T10:02:27Z</time>
      </trkpt>
      <trkpt lat="45.35486" lon="4.52375">
        <ele>1308</ele>
        <time>2010-09-30T10:02:44Z</time>
      </trkpt>
      <trkpt lat="45.35494" lon="4.52382">
        <ele>1308</ele>
        <time>2010-09-30T10:02:49Z</time>
      </trkpt>
      <trkpt lat="45.35501" lon="4.52372">
        <ele>1294</ele>
        <time>2010-09-30T10:02:55Z</time>
      </trkpt>
      <trkpt lat="45.3551" lon="4.52375">
        <ele>1294</ele>
        <time>2010-09-30T10:03:05Z</time>
      </trkpt>
      <trkpt lat="45.35519" lon="4.52383">
        <ele>1286</ele>
        <time>2010-09-30T10:03:15Z</time>
      </trkpt>
      <trkpt lat="45.35529" lon="4.52387">
        <ele>1278</ele>
        <time>2010-09-30T10:03:22Z</time>
      </trkpt>
      <trkpt lat="45.35536" lon="4.52398">
        <ele>1284</ele>
        <time>2010-09-30T10:03:31Z</time>
      </trkpt>
      <trkpt lat="45.35546" lon="4.52401">
        <ele>1289</ele>
        <time>2010-09-30T10:03:46Z</time>
      </trkpt>
      <trkpt lat="45.35556" lon="4.52403">
        <ele>1289</ele>
        <time>2010-09-30T10:03:55Z</time>
      </trkpt>
      <trkpt lat="45.35565" lon="4.52407">
        <ele>1289</ele>
        <time>2010-09-30T10:04:04Z</time>
      </trkpt>
      <trkpt lat="45.35575" lon="4.52401">
        <ele>1289</ele>
        <time>2010-09-30T10:04:15Z</time>
      </trkpt>
      <trkpt lat="45.35584" lon="4.52407">
        <ele>1289</ele>
        <time>2010-09-30T10:04:24Z</time>
      </trkpt>
      <trkpt lat="45.35593" lon="4.52403">
        <ele>1282</ele>
        <time>2010-09-30T10:04:34Z</time>
      </trkpt>
      <trkpt lat="45.35603" lon="4.52401">
        <ele>1282</ele>
        <time>2010-09-30T10:04:43Z</time>
      </trkpt>
      <trkpt lat="45.35611" lon="4.52409">
        <ele>1282</ele>
        <time>2010-09-30T10:05:00Z</time>
      </trkpt>
      <trkpt lat="45.35621" lon="4.52408">
        <ele>1282</ele>
        <time>2010-09-30T10:05:07Z</time>
      </trkpt>
      <trkpt lat="45.35632" lon="4.5241">
        <ele>1273</ele>
        <time>2010-09-30T10:05:20Z</time>
      </trkpt>
      <trkpt lat="45.35642" lon="4.52411">
        <ele>1273</ele>
        <time>2010-09-30T10:05:29Z</time>
      </trkpt>
      <trkpt lat="45.3565" lon="4.52419">
        <ele>1273</ele>
        <time>2010-09-30T10:05:40Z</time>
      </trkpt>
      <trkpt lat="45.35659" lon="4.52422">
        <ele>1273</ele>
        <time>2010-09-30T10:05:53Z</time>
      </trkpt>
      <trkpt lat="45.35669" lon="4.52423">
        <ele>1264</ele>
        <time>2010-09-30T10:06:01Z</time>
      </trkpt>
      <trkpt lat="45.35679" lon="4.52422">
        <ele>1256</ele>
        <time>2010-09-30T10:06:14Z</time>
      </trkpt>
      <trkpt lat="45.35689" lon="4.52424">
        <ele>1248</ele>
        <time>2010-09-30T10:06:21Z</time>
      </trkpt>
      <trkpt lat="45.35699" lon="4.52422">
        <ele>1248</ele>
        <time>2010-09-30T10:06:30Z</time>
      </trkpt>
      <trkpt lat="45.35709" lon="4.52423">
        <ele>1248</ele>
        <time>2010-09-30T10:06:37Z</time>
      </trkpt>
      <trkpt lat="45.35719" lon="4.5243">
        <ele>1260</ele>
        <time>2010-09-30T10:06:56Z</time>
      </trkpt>
      <trkpt lat="45.35729" lon="4.52437">
        <ele>1260</ele>
        <time>2010-09-30T10:07:00Z</time>
      </trkpt>
      <trkpt lat="45.35737" lon="4.52444">
        <ele>1260</ele>
        <time>2010-09-30T10:07:07Z</time>
      </trkpt>
      <trkpt lat="45.35747" lon="4.52438">
        <ele>1260</ele>
        <time>2010-09-30T10:07:18Z</time>
      </trkpt>
      <trkpt lat="45.35756" lon="4.5244">
        <ele>1260</ele>
        <time>2010-09-30T10:07:29Z</time>
      </trkpt>
      <trkpt lat="45.35766" lon="4.52444">
        <ele>1265</ele>
        <time>2010-09-30T10:07:42Z</time>
      </trkpt>
      <trkpt lat="45.35776" lon="4.52446">
        <ele>1254</ele>
        <time>2010-09-30T10:07:53Z</time>
      </trkpt>
      <trkpt lat="45.35785" lon="4.52452">
        <ele>1246</ele>
        <time>2010-09-30T10:07:58Z</time>
      </trkpt>
      <trkpt lat="45.35794" lon="4.52453">
        <ele>1246</ele>
        <time>2010-09-30T10:08:08Z</time>
      </trkpt>
      <trkpt lat="45.35804" lon="4.52455">
        <ele>1259</ele>
        <time>2010-09-30T10:08:27Z</time>
      </trkpt>
      <trkpt lat="45.35814" lon="4.52462">
        <ele>1259</ele>
        <time>2010-09-30T10:08:37Z</time>
      </trkpt>
      <trkpt lat="45.35823" lon="4.5246">
        <ele>1259</ele>
        <time>2010-09-30T10:08:44Z</time>
      </trkpt>
      <trkpt lat="45.3583" lon="4.5247">
        <ele>1259</ele>
        <time>2010-09-30T10:08:57Z</time>
      </trkpt>
      <trkpt lat="45.3584" lon="4.52472">
        <ele>1259</ele>
        <time>2010-09-30T10:09:01Z</time>
      </trkpt>
      <trkpt lat="45.35852" lon="4.5247">
        <ele>1249</ele>
        <time>2010-09-30T10:09:08Z</time>
      </trkpt>
      <trkpt lat="45.3586" lon="4.52477">
        <ele>1272</ele>
        <time>2010-09-30T10:09:28Z</time>
      </trkpt>
      <trkpt lat="45.3587" lon="4.52478">
        <ele>1272</ele>
        <time>2010-09-30T10:09:34Z</time>
      </trkpt>
      <trkpt lat="45.35879" lon="4.52481">
        <ele>1254</ele>
        <time>2010-09-30T10:09:43Z</time>
      </trkpt>
      <trkpt lat="45.35889" lon="4.52481">
        <ele>1239</ele>
        <time>2010-09-30T10:09:51Z</time>
      </trkpt>
      <trkpt lat="45.35899" lon="4.52488">
        <ele>1239</ele>
        <time>2010-09-30T10:10:01Z</time>
      </trkpt>
      <trkpt lat="45.3591" lon="4.52481">
        <ele>1239</ele>
        <time>2010-09-30T10:10:13Z</time>
      </trkpt>
      <trkpt lat="45.3592" lon="4.52488">
        <ele>1246</ele>
        <time>2010-09-30T10:10:17Z</time>
      </trkpt>
      <trkpt lat="45.35928" lon="4.52494">
        <ele>1261</ele>
        <time>2010-09-30T10:10:32Z</time>
      </trkpt>
      <trkpt lat="45.35939" lon="4.52499">
        <ele>1261</ele>
        <time>2010-09-30T10:10:45Z</time>
      </trkpt>
      <trkpt lat="45.35949" lon="4.52497">
        <ele>1261</ele>
        <time>2010-09-30T10:10:51Z</time>
      </trkpt>
      <trkpt lat="45.35961" lon="4.52495">
        <ele>1261</ele>
        <time>2010-09-30T10:11:01Z</time>
      </trkpt>
      <trkpt lat="45.35965" lon="4.52509">
        <ele>1261</ele>
        <time>2010-09-30T10:11:12Z</time>
      </trkpt>
      <trkpt lat="45.35974" lon="4.52509">
        <ele>1251</ele>
        <time>2010-09-30T10:11:18Z</time>
      </trkpt>
      <trkpt lat="45.35984" lon="4.52507">
        <ele>1243</ele>
        <time>2010-09-30T10:11:23Z</time>
      </trkpt>
      <trkpt lat="45.35994" lon="4.52512">
        <ele>1243</ele>
        <time>2010-09-30T10:11:38Z</time>
      </trkpt>
      <trkpt lat="45.36003" lon="4.52509">
        <ele>1254</ele>
        <time>2010-09-30T10:11:52Z</time>
      </trkpt>
      <trkpt lat="45.36009" lon="4.5252">
        <ele>1254</ele>
        <time>2010-09-30T10:12:07Z</time>
      </trkpt>
      <trkpt lat="45.3602" lon="4.52518">
        <ele>1254</ele>
        <time>2010-09-30T10:12:17Z</time>
      </trkpt>
      <trkpt lat="45.36028" lon="4.52528">
        <ele>1248</ele>
        <time>2010-09-30T10:12:25Z</time>
      </trkpt>
      <trkpt lat="45.36037" lon="4.52524">
        <ele>1240</ele>
        <time>2010-09-30T10:12:33Z</time>
      </trkpt>
      <trkpt lat="45.36051" lon="4.52521">
        <ele>1251</ele>
        <time>2010-09-30T10:12:42Z</time>
      </trkpt>
      <trkpt lat="45.36061" lon="4.52522">
        <ele>1251</ele>
        <time>2010-09-30T10:12:58Z</time>
      </trkpt>
      <trkpt lat="45.3607" lon="4.52528">
        <ele>1251</ele>
        <time>2010-09-30T10:13:09Z</time>
      </trkpt>
      <trkpt lat="45.3608" lon="4.52527">
        <ele>1251</ele>
        <time>2010-09-30T10:13:16Z</time>
      </trkpt>
      <trkpt lat="45.36087" lon="4.52537">
        <ele>1266</ele>
        <time>2010-09-30T10:13:33Z</time>
      </trkpt>
      <trkpt lat="45.36094" lon="4.52528">
        <ele>1258</ele>
        <time>2010-09-30T10:13:41Z</time>
      </trkpt>
      <trkpt lat="45.36088" lon="4.52538">
        <ele>1278</ele>
        <time>2010-09-30T10:13:55Z</time>
      </trkpt>
      <trkpt lat="45.36089" lon="4.52553">
        <ele>1248</ele>
        <time>2010-09-30T10:14:13Z</time>
      </trkpt>
      <trkpt lat="45.36087" lon="4.52567">
        <ele>1235</ele>
        <time>2010-09-30T10:14:23Z</time>
      </trkpt>
      <trkpt lat="45.36086" lon="4.52553">
        <ele>1235</ele>
        <time>2010-09-30T10:14:36Z</time>
      </trkpt>
      <trkpt lat="45.36082" lon="4.52541">
        <ele>1277</ele>
        <time>2010-09-30T10:15:03Z</time>
      </trkpt>
      <trkpt lat="45.36092" lon="4.52534">
        <ele>1266</ele>
        <time>2010-09-30T10:15:30Z</time>
      </trkpt>
      <trkpt lat="45.36099" lon="4.52525">
        <ele>1266</ele>
        <time>2010-09-30T10:15:36Z</time>
      </trkpt>
      <trkpt lat="45.36094" lon="4.52538">
        <ele>1274</ele>
        <time>2010-09-30T10:15:41Z</time>
      </trkpt>
      <trkpt lat="45.36101" lon="4.52526">
        <ele>1274</ele>
        <time>2010-09-30T10:15:55Z</time>
      </trkpt>
      <trkpt lat="45.36112" lon="4.52521">
        <ele>1267</ele>
        <time>2010-09-30T10:16:08Z</time>
      </trkpt>
      <trkpt lat="45.36121" lon="4.52521">
        <ele>1251</ele>
        <time>2010-09-30T10:16:22Z</time>
      </trkpt>
      <trkpt lat="45.36131" lon="4.52511">
        <ele>1244</ele>
        <time>2010-09-30T10:16:32Z</time>
      </trkpt>
      <trkpt lat="45.36142" lon="4.52508">
        <ele>1244</ele>
        <time>2010-09-30T10:16:55Z</time>
      </trkpt>
      <trkpt lat="45.36151" lon="4.52501">
        <ele>1230</ele>
        <time>2010-09-30T10:17:08Z</time>
      </trkpt>
      <trkpt lat="45.36158" lon="4.52493">
        <ele>1230</ele>
        <time>2010-09-30T10:17:16Z</time>
      </trkpt>
      <trkpt lat="45.36167" lon="4.52488">
        <ele>1230</ele>
        <time>2010-09-30T10:17:22Z</time>
      </trkpt>
      <trkpt lat="45.36177" lon="4.52493">
        <ele>1257</ele>
        <time>2010-09-30T10:17:48Z</time>
      </trkpt>
      <trkpt lat="45.36186" lon="4.52489">
        <ele>1246</ele>
        <time>2010-09-30T10:17:52Z</time>
      </trkpt>
      <trkpt lat="45.36194" lon="4.52481">
        <ele>1240</ele>
        <time>2010-09-30T10:17:59Z</time>
      </trkpt>
      <trkpt lat="45.36205" lon="4.52472">
        <ele>1240</ele>
        <time>2010-09-30T10:18:16Z</time>
      </trkpt>
      <trkpt lat="45.36214" lon="4.52478">
        <ele>1240</ele>
        <time>2010-09-30T10:18:38Z</time>
      </trkpt>
      <trkpt lat="45.36223" lon="4.52469">
        <ele>1240</ele>
        <time>2010-09-30T10:18:45Z</time>
      </trkpt>
      <trkpt lat="45.36232" lon="4.52468">
        <ele>1240</ele>
        <time>2010-09-30T10:18:55Z</time>
      </trkpt>
      <trkpt lat="45.36241" lon="4.52464">
        <ele>1249</ele>
        <time>2010-09-30T10:19:03Z</time>
      </trkpt>
      <trkpt lat="45.36251" lon="4.52463">
        <ele>1249</ele>
        <time>2010-09-30T10:19:17Z</time>
      </trkpt>
      <trkpt lat="45.3626" lon="4.52463">
        <ele>1249</ele>
        <time>2010-09-30T10:19:30Z</time>
      </trkpt>
      <trkpt lat="45.36269" lon="4.52456">
        <ele>1241</ele>
        <time>2010-09-30T10:19:36Z</time>
      </trkpt>
      <trkpt lat="45.36279" lon="4.52452">
        <ele>1236</ele>
        <time>2010-09-30T10:19:57Z</time>
      </trkpt>
      <trkpt lat="45.36276" lon="4.52439">
        <ele>1236</ele>
        <time>2010-09-30T10:20:09Z</time>
      </trkpt>
      <trkpt lat="45.36267" lon="4.52436">
        <ele>1236</ele>
        <time>2010-09-30T10:20:19Z</time>
      </trkpt>
      <trkpt lat="45.36262" lon="4.52423">
        <ele>1236</ele>
        <time>2010-09-30T10:20:29Z</time>
      </trkpt>
      <trkpt lat="45.36268" lon="4.52411">
        <ele>1236</ele>
        <time>2010-09-30T10:20:34Z</time>
      </trkpt>
      <trkpt lat="45.3626" lon="4.52402">
        <ele>1236</ele>
        <time>2010-09-30T10:20:44Z</time>
      </trkpt>
      <trkpt lat="45.36251" lon="4.52392">
        <ele>1228</ele>
        <time>2010-09-30T10:20:50Z</time>
      </trkpt>
      <trkpt lat="45.36247" lon="4.52378">
        <ele>1221</ele>
        <time>2010-09-30T10:20:57Z</time>
      </trkpt>
      <trkpt lat="45.36241" lon="4.52367">
        <ele>1221</ele>
        <time>2010-09-30T10:21:05Z</time>
      </trkpt>
      <trkpt lat="45.36246" lon="4.52356">
        <ele>1221</ele>
        <time>2010-09-30T10:21:13Z</time>
      </trkpt>
      <trkpt lat="45.36241" lon="4.52345">
        <ele>1221</ele>
        <time>2010-09-30T10:21:26Z</time>
      </trkpt>
      <trkpt lat="45.36234" lon="4.52334">
        <ele>1221</ele>
        <time>2010-09-30T10:21:33Z</time>
      </trkpt>
      <trkpt lat="45.36226" lon="4.52321">
        <ele>1221</ele>
        <time>2010-09-30T10:21:40Z</time>
      </trkpt>
      <trkpt lat="45.36232" lon="4.52308">
        <ele>1221</ele>
        <time>2010-09-30T10:21:45Z</time>
      </trkpt>
      <trkpt lat="45.36236" lon="4.52296">
        <ele>1221</ele>
        <time>2010-09-30T10:21:51Z</time>
      </trkpt>
      <trkpt lat="45.36227" lon="4.52288">
        <ele>1221</ele>
        <time>2010-09-30T10:22:01Z</time>
      </trkpt>
      <trkpt lat="45.36224" lon="4.52275">
        <ele>1215</ele>
        <time>2010-09-30T10:22:08Z</time>
      </trkpt>
      <trkpt lat="45.36215" lon="4.52269">
        <ele>1215</ele>
        <time>2010-09-30T10:22:12Z</time>
      </trkpt>
      <trkpt lat="45.36207" lon="4.52259">
        <ele>1215</ele>
        <time>2010-09-30T10:22:20Z</time>
      </trkpt>
      <trkpt lat="45.36196" lon="4.52259">
        <ele>1207</ele>
        <time>2010-09-30T10:22:28Z</time>
      </trkpt>
      <trkpt lat="45.36197" lon="4.52244">
        <ele>1207</ele>
        <time>2010-09-30T10:22:36Z</time>
      </trkpt>
      <trkpt lat="45.36188" lon="4.52236">
        <ele>1207</ele>
        <time>2010-09-30T10:22:45Z</time>
      </trkpt>
      <trkpt lat="45.36187" lon="4.52223">
        <ele>1207</ele>
        <time>2010-09-30T10:22:53Z</time>
      </trkpt>
      <trkpt lat="45.36178" lon="4.52214">
        <ele>1207</ele>
        <time>2010-09-30T10:23:02Z</time>
      </trkpt>
      <trkpt lat="45.36178" lon="4.522">
        <ele>1207</ele>
        <time>2010-09-30T10:23:08Z</time>
      </trkpt>
      <trkpt lat="45.36166" lon="4.52195">
        <ele>1207</ele>
        <time>2010-09-30T10:23:18Z</time>
      </trkpt>
      <trkpt lat="45.3616" lon="4.52184">
        <ele>1207</ele>
        <time>2010-09-30T10:23:26Z</time>
      </trkpt>
      <trkpt lat="45.36151" lon="4.52184">
        <ele>1207</ele>
        <time>2010-09-30T10:23:33Z</time>
      </trkpt>
      <trkpt lat="45.36155" lon="4.5217">
        <ele>1207</ele>
        <time>2010-09-30T10:23:41Z</time>
      </trkpt>
      <trkpt lat="45.36148" lon="4.5216">
        <ele>1207</ele>
        <time>2010-09-30T10:23:48Z</time>
      </trkpt>
      <trkpt lat="45.36141" lon="4.5215">
        <ele>1207</ele>
        <time>2010-09-30T10:23:55Z</time>
      </trkpt>
      <trkpt lat="45.36138" lon="4.52137">
        <ele>1207</ele>
        <time>2010-09-30T10:24:04Z</time>
      </trkpt>
      <trkpt lat="45.36135" lon="4.52124">
        <ele>1201</ele>
        <time>2010-09-30T10:24:14Z</time>
      </trkpt>
      <trkpt lat="45.36137" lon="4.5211">
        <ele>1201</ele>
        <time>2010-09-30T10:24:22Z</time>
      </trkpt>
      <trkpt lat="45.36137" lon="4.52095">
        <ele>1201</ele>
        <time>2010-09-30T10:24:35Z</time>
      </trkpt>
      <trkpt lat="45.36141" lon="4.52081">
        <ele>1208</ele>
        <time>2010-09-30T10:24:50Z</time>
      </trkpt>
      <trkpt lat="45.36146" lon="4.5207">
        <ele>1200</ele>
        <time>2010-09-30T10:24:56Z</time>
      </trkpt>
      <trkpt lat="45.36149" lon="4.52057">
        <ele>1194</ele>
        <time>2010-09-30T10:25:01Z</time>
      </trkpt>
      <trkpt lat="45.36155" lon="4.52047">
        <ele>1194</ele>
        <time>2010-09-30T10:25:11Z</time>
      </trkpt>
      <trkpt lat="45.36162" lon="4.52038">
        <ele>1200</ele>
        <time>2010-09-30T10:25:23Z</time>
      </trkpt>
      <trkpt lat="45.36167" lon="4.52026">
        <ele>1200</ele>
        <time>2010-09-30T10:25:31Z</time>
      </trkpt>
      <trkpt lat="45.36171" lon="4.52014">
        <ele>1200</ele>
        <time>2010-09-30T10:25:40Z</time>
      </trkpt>
      <trkpt lat="45.36171" lon="4.52001">
        <ele>1200</ele>
        <time>2010-09-30T10:25:58Z</time>
      </trkpt>
      <trkpt lat="45.36176" lon="4.51986">
        <ele>1200</ele>
        <time>2010-09-30T10:26:06Z</time>
      </trkpt>
      <trkpt lat="45.36183" lon="4.51977">
        <ele>1194</ele>
        <time>2010-09-30T10:26:10Z</time>
      </trkpt>
      <trkpt lat="45.36187" lon="4.51963">
        <ele>1188</ele>
        <time>2010-09-30T10:26:21Z</time>
      </trkpt>
      <trkpt lat="45.36195" lon="4.51956">
        <ele>1182</ele>
        <time>2010-09-30T10:26:31Z</time>
      </trkpt>
      <trkpt lat="45.36203" lon="4.51948">
        <ele>1188</ele>
        <time>2010-09-30T10:26:44Z</time>
      </trkpt>
      <trkpt lat="45.3621" lon="4.51938">
        <ele>1188</ele>
        <time>2010-09-30T10:26:51Z</time>
      </trkpt>
      <trkpt lat="45.36217" lon="4.51926">
        <ele>1188</ele>
        <time>2010-09-30T10:27:06Z</time>
      </trkpt>
      <trkpt lat="45.36222" lon="4.51914">
        <ele>1188</ele>
        <time>2010-09-30T10:27:15Z</time>
      </trkpt>
      <trkpt lat="45.36224" lon="4.51901">
        <ele>1194</ele>
        <time>2010-09-30T10:27:25Z</time>
      </trkpt>
      <trkpt lat="45.36229" lon="4.51888">
        <ele>1194</ele>
        <time>2010-09-30T10:27:33Z</time>
      </trkpt>
      <trkpt lat="45.36231" lon="4.51873">
        <ele>1194</ele>
        <time>2010-09-30T10:27:40Z</time>
      </trkpt>
      <trkpt lat="45.36236" lon="4.51862">
        <ele>1194</ele>
        <time>2010-09-30T10:27:49Z</time>
      </trkpt>
      <trkpt lat="45.36243" lon="4.51852">
        <ele>1187</ele>
        <time>2010-09-30T10:27:54Z</time>
      </trkpt>
      <trkpt lat="45.3625" lon="4.5184">
        <ele>1180</ele>
        <time>2010-09-30T10:28:00Z</time>
      </trkpt>
      <trkpt lat="45.36256" lon="4.5183">
        <ele>1174</ele>
        <time>2010-09-30T10:28:06Z</time>
      </trkpt>
      <trkpt lat="45.36264" lon="4.51824">
        <ele>1174</ele>
        <time>2010-09-30T10:28:13Z</time>
      </trkpt>
      <trkpt lat="45.36272" lon="4.51816">
        <ele>1169</ele>
        <time>2010-09-30T10:28:24Z</time>
      </trkpt>
      <trkpt lat="45.36281" lon="4.5181">
        <ele>1169</ele>
        <time>2010-09-30T10:28:37Z</time>
      </trkpt>
    </trkseg>
  </trk>
</gpx>